Wetterdaten: Freitag, 09.04.2021
Datum Zeit Temp. Aussen Temp. o. S. Temp +5cm Feuchte Auss Luftdruck Regen Sonnenschein Regendauer Solar Windben Empfang
09.04.2021 00:00 4,0 C 3,3 C 1,1 C 75 % 1019,5 hPa 0,0 l/m 0 min 0 min 0 W/m 3,2 km/h (1 Bft) 93,62 %
09.04.2021 00:02 4,0 C 3,3 C 1,1 C 75 % 1019,5 hPa 0,0 l/m 0 min 0 min 0 W/m 3,2 km/h (1 Bft) 95,56 %
09.04.2021 00:04 4,0 C 3,3 C 1,1 C 75 % 1019,4 hPa 0,0 l/m 0 min 0 min 0 W/m 3,2 km/h (1 Bft) 95,74 %
09.04.2021 00:08 4,0 C 3,3 C 1,1 C 75 % 1019,4 hPa 0,0 l/m 0 min 0 min 0 W/m 6,4 km/h (2 Bft) 97,89 %
09.04.2021 00:10 4,0 C 3,3 C 1,1 C 75 % 1019,4 hPa 0,0 l/m 0 min 0 min 0 W/m 6,4 km/h (2 Bft) 97,87 %
09.04.2021 00:12 4,0 C 3,3 C 1,1 C 75 % 1019,3 hPa 0,0 l/m 0 min 0 min 0 W/m 3,2 km/h (1 Bft) 97,87 %
09.04.2021 00:14 3,9 C 3,3 C 1,1 C 75 % 1019,3 hPa 0,0 l/m 0 min 0 min 0 W/m 3,2 km/h (1 Bft) 97,87 %
09.04.2021 00:16 3,9 C 3,3 C 1,1 C 75 % 1019,2 hPa 0,0 l/m 0 min 0 min 0 W/m 6,4 km/h (2 Bft) 95,65 %
09.04.2021 00:18 3,9 C 3,3 C 1,1 C 75 % 1019,2 hPa 0,0 l/m 0 min 0 min 0 W/m 6,4 km/h (2 Bft) 97,87 %
09.04.2021 00:20 3,9 C 3,3 C 1,1 C 75 % 1019,2 hPa 0,0 l/m 0 min 0 min 0 W/m 3,2 km/h (1 Bft) 95,74 %
09.04.2021 00:22 3,9 C 3,3 C 1,1 C 75 % 1019,2 hPa 0,0 l/m 0 min 0 min 0 W/m 6,4 km/h (2 Bft) 97,87 %
09.04.2021 00:24 3,9 C 3,3 C 1,1 C 75 % 1019,1 hPa 0,0 l/m 0 min 0 min 0 W/m 6,4 km/h (2 Bft) 97,87 %
09.04.2021 00:26 3,9 C 3,3 C 1,1 C 75 % 1019,2 hPa 0,0 l/m 0 min 0 min 0 W/m 6,4 km/h (2 Bft) 97,87 %
09.04.2021 00:28 3,9 C 3,3 C 1,1 C 75 % 1019,1 hPa 0,0 l/m 0 min 0 min 0 W/m 6,4 km/h (2 Bft) 97,83 %
09.04.2021 00:30 3,9 C 3,3 C 1,1 C 75 % 1019,1 hPa 0,0 l/m 0 min 0 min 0 W/m 3,2 km/h (1 Bft) 54,55 %
09.04.2021 00:32 3,9 C 3,3 C 1,1 C 75 % 1019,1 hPa 0,0 l/m 0 min 0 min 0 W/m 3,2 km/h (1 Bft) 97,22 %
09.04.2021 00:34 3,9 C 3,3 C 1,1 C 75 % 1019,1 hPa 0,0 l/m 0 min 0 min 0 W/m 6,4 km/h (2 Bft) 97,87 %
09.04.2021 00:36 3,9 C 3,3 C 1,1 C 75 % 1019,0 hPa 0,0 l/m 0 min 0 min 0 W/m 6,4 km/h (2 Bft) 95,74 %
09.04.2021 00:38 3,9 C 3,3 C 1,1 C 75 % 1019,0 hPa 0,0 l/m 0 min 0 min 0 W/m 6,4 km/h (2 Bft) 98,28 %
09.04.2021 00:40 3,9 C 3,3 C 1,1 C 75 % 1019,0 hPa 0,0 l/m 0 min 0 min 0 W/m 9,7 km/h (2 Bft) 97,14 %
09.04.2021 00:42 3,8 C 3,3 C 1,1 C 75 % 1019,0 hPa 0,0 l/m 0 min 0 min 0 W/m 6,4 km/h (2 Bft) 97,87 %
09.04.2021 00:44 3,9 C 3,3 C 1,1 C 76 % 1018,9 hPa 0,0 l/m 0 min 0 min 0 W/m 12,9 km/h (3 Bft) 95,74 %
09.04.2021 00:46 3,8 C 3,3 C 1,1 C 75 % 1018,9 hPa 0,0 l/m 0 min 0 min 0 W/m 6,4 km/h (2 Bft) 97,87 %
09.04.2021 00:48 3,8 C 3,3 C 1,1 C 76 % 1018,8 hPa 0,0 l/m 0 min 0 min 0 W/m 6,4 km/h (2 Bft) 97,87 %
09.04.2021 00:50 3,8 C 3,3 C 1,1 C 76 % 1018,8 hPa 0,0 l/m 0 min 0 min 0 W/m 6,4 km/h (2 Bft) 93,62 %
09.04.2021 00:52 3,8 C 3,3 C 1,1 C 76 % 1018,8 hPa 0,0 l/m 0 min 0 min 0 W/m 12,9 km/h (3 Bft) 97,87 %
09.04.2021 00:54 3,8 C 3,3 C 1,1 C 76 % 1018,8 hPa 0,0 l/m 0 min 0 min 0 W/m 6,4 km/h (2 Bft) 97,83 %
09.04.2021 00:56 3,8 C 3,3 C 1,1 C 76 % 1018,8 hPa 0,0 l/m 0 min 0 min 0 W/m 12,9 km/h (3 Bft) 95,74 %
09.04.2021 00:58 3,8 C 3,3 C 1,1 C 76 % 1018,8 hPa 0,0 l/m 0 min 0 min 0 W/m 6,4 km/h (2 Bft) 97,87 %
09.04.2021 01:00 3,8 C 3,3 C 1,1 C 76 % 1018,8 hPa 0,0 l/m 0 min 0 min 0 W/m 9,7 km/h (2 Bft) 95,74 %
09.04.2021 01:02 3,8 C 3,3 C 1,1 C 76 % 1018,7 hPa 0,0 l/m 0 min 0 min 0 W/m 9,7 km/h (2 Bft) 93,75 %
09.04.2021 01:04 3,8 C 3,3 C 1,1 C 76 % 1018,7 hPa 0,0 l/m 0 min 0 min 0 W/m 6,4 km/h (2 Bft) 95,65 %
09.04.2021 01:06 3,8 C 3,3 C 1,1 C 76 % 1018,6 hPa 0,0 l/m 0 min 0 min 0 W/m 6,4 km/h (2 Bft) 94,92 %
09.04.2021 01:08 3,8 C 3,3 C 1,1 C 76 % 1018,6 hPa 0,0 l/m 0 min 0 min 0 W/m 3,2 km/h (1 Bft) 95,83 %
09.04.2021 01:10 3,8 C 3,3 C 1,1 C 76 % 1018,6 hPa 0,0 l/m 0 min 0 min 0 W/m 6,4 km/h (2 Bft) 96,61 %
09.04.2021 01:12 3,7 C 2,8 C 1,1 C 76 % 1018,6 hPa 0,0 l/m 0 min 0 min 0 W/m 6,4 km/h (2 Bft) 93,62 %
09.04.2021 01:14 3,7 C 2,8 C 1,1 C 76 % 1018,6 hPa 0,0 l/m 0 min 0 min 0 W/m 6,4 km/h (2 Bft) 95,74 %
09.04.2021 01:16 3,7 C 2,8 C 1,1 C 76 % 1018,5 hPa 0,0 l/m 0 min 0 min 0 W/m 6,4 km/h (2 Bft) 97,83 %
09.04.2021 01:18 3,7 C 3,3 C 1,1 C 76 % 1018,5 hPa 0,0 l/m 0 min 0 min 0 W/m 12,9 km/h (3 Bft) 97,87 %
09.04.2021 01:20 3,7 C 2,8 C 1,1 C 76 % 1018,5 hPa 0,0 l/m 0 min 0 min 0 W/m 12,9 km/h (3 Bft) 97,87 %
09.04.2021 01:22 3,7 C 2,8 C 0,6 C 76 % 1018,5 hPa 0,0 l/m 0 min 0 min 0 W/m 9,7 km/h (2 Bft) 97,87 %
09.04.2021 01:24 3,7 C 2,8 C 0,6 C 76 % 1018,5 hPa 0,0 l/m 0 min 0 min 0 W/m 9,7 km/h (2 Bft) 95,74 %
09.04.2021 01:26 3,6 C 2,8 C 0,6 C 76 % 1018,5 hPa 0,0 l/m 0 min 0 min 0 W/m 9,7 km/h (2 Bft) 97,83 %
09.04.2021 01:28 3,6 C 2,8 C 0,6 C 76 % 1018,5 hPa 0,0 l/m 0 min 0 min 0 W/m 6,4 km/h (2 Bft) 97,87 %
09.04.2021 01:30 3,6 C 2,8 C 0,6 C 77 % 1018,5 hPa 0,0 l/m 0 min 0 min 0 W/m 12,9 km/h (3 Bft) 95,74 %
09.04.2021 01:32 3,6 C 2,8 C 0,6 C 77 % 1018,5 hPa 0,0 l/m 0 min 0 min 0 W/m 9,7 km/h (2 Bft) 95,74 %
09.04.2021 01:34 3,6 C 2,8 C 0,6 C 77 % 1018,4 hPa 0,0 l/m 0 min 0 min 0 W/m 9,7 km/h (2 Bft) 97,87 %
09.04.2021 01:36 3,6 C 2,8 C 0,6 C 77 % 1018,4 hPa 0,0 l/m 0 min 0 min 0 W/m 12,9 km/h (3 Bft) 97,87 %
09.04.2021 01:38 3,6 C 2,8 C 0,6 C 77 % 1018,4 hPa 0,0 l/m 0 min 0 min 0 W/m 6,4 km/h (2 Bft) 100,00 %
09.04.2021 01:40 3,6 C 2,8 C 0,6 C 77 % 1018,4 hPa 0,0 l/m 0 min 0 min 0 W/m 9,7 km/h (2 Bft) 100,00 %
09.04.2021 01:42 3,6 C 2,8 C 0,6 C 77 % 1018,4 hPa 0,0 l/m 0 min 0 min 0 W/m 16,1 km/h (3 Bft) 100,00 %
09.04.2021 01:44 3,5 C 2,8 C 0,6 C 77 % 1018,4 hPa 0,0 l/m 0 min 0 min 0 W/m 6,4 km/h (2 Bft) 100,00 %
09.04.2021 01:46 3,5 C 2,8 C 0,6 C 77 % 1018,3 hPa 0,0 l/m 0 min 0 min 0 W/m 9,7 km/h (2 Bft) 97,87 %
09.04.2021 01:48 3,5 C 2,8 C 0,6 C 77 % 1018,3 hPa 0,0 l/m 0 min 0 min 0 W/m 9,7 km/h (2 Bft) 100,00 %
09.04.2021 01:50 3,5 C 2,8 C 0,6 C 77 % 1018,3 hPa 0,0 l/m 0 min 0 min 0 W/m 9,7 km/h (2 Bft) 100,00 %
09.04.2021 01:52 3,5 C 2,8 C 0,6 C 77 % 1018,3 hPa 0,0 l/m 0 min 0 min 0 W/m 6,4 km/h (2 Bft) 100,00 %
09.04.2021 01:54 3,5 C 2,8 C 0,6 C 77 % 1018,2 hPa 0,0 l/m 0 min 0 min 0 W/m 9,7 km/h (2 Bft) 100,00 %
09.04.2021 01:56 3,5 C 2,8 C 0,6 C 77 % 1018,2 hPa 0,0 l/m 0 min 0 min 0 W/m 12,9 km/h (3 Bft) 97,87 %
09.04.2021 01:58 3,5 C 2,8 C 0,6 C 77 % 1018,2 hPa 0,0 l/m 0 min 0 min 0 W/m 12,9 km/h (3 Bft) 100,00 %
09.04.2021 02:00 3,5 C 2,8 C 0,6 C 77 % 1018,2 hPa 0,0 l/m 0 min 0 min 0 W/m 16,1 km/h (3 Bft) 100,00 %
09.04.2021 02:02 3,5 C 2,8 C 0,6 C 77 % 1018,2 hPa 0,0 l/m 0 min 0 min 0 W/m 9,7 km/h (2 Bft) 100,00 %
09.04.2021 02:04 3,5 C 2,8 C 0,6 C 77 % 1018,2 hPa 0,0 l/m 0 min 0 min 0 W/m 6,4 km/h (2 Bft) 100,00 %
09.04.2021 02:06 3,5 C 2,8 C 0,6 C 77 % 1018,1 hPa 0,0 l/m 0 min 0 min 0 W/m 9,7 km/h (2 Bft) 100,00 %
09.04.2021 02:08 3,5 C 2,8 C 0,6 C 77 % 1018,1 hPa 0,0 l/m 0 min 0 min 0 W/m 9,7 km/h (2 Bft) 100,00 %
09.04.2021 02:10 3,5 C 2,8 C 0,6 C 77 % 1018,1 hPa 0,0 l/m 0 min 0 min 0 W/m 6,4 km/h (2 Bft) 100,00 %
09.04.2021 02:12 3,5 C 2,8 C 0,6 C 78 % 1018,1 hPa 0,0 l/m 0 min 0 min 0 W/m 9,7 km/h (2 Bft) 100,00 %
09.04.2021 02:14 3,5 C 2,8 C 0,6 C 78 % 1018,0 hPa 0,0 l/m 0 min 0 min 0 W/m 6,4 km/h (2 Bft) 100,00 %
09.04.2021 02:16 3,5 C 2,8 C 0,6 C 78 % 1018,0 hPa 0,0 l/m 0 min 0 min 0 W/m 12,9 km/h (3 Bft) 97,87 %
09.04.2021 02:18 3,5 C 2,8 C 0,6 C 78 % 1018,0 hPa 0,0 l/m 0 min 0 min 0 W/m 6,4 km/h (2 Bft) 97,87 %
09.04.2021 02:20 3,5 C 2,8 C 0,6 C 78 % 1018,0 hPa 0,0 l/m 0 min 0 min 0 W/m 6,4 km/h (2 Bft) 100,00 %
09.04.2021 02:22 3,5 C 2,8 C 0,6 C 78 % 1017,9 hPa 0,0 l/m 0 min 0 min 0 W/m 6,4 km/h (2 Bft) 100,00 %
09.04.2021 02:24 3,5 C 2,8 C 0,6 C 78 % 1017,9 hPa 0,0 l/m 0 min 0 min 0 W/m 6,4 km/h (2 Bft) 100,00 %
09.04.2021 02:26 3,5 C 2,8 C 0,6 C 78 % 1017,9 hPa 0,0 l/m 0 min 0 min 0 W/m 6,4 km/h (2 Bft) 100,00 %
09.04.2021 02:28 3,5 C 2,8 C 0,6 C 78 % 1017,9 hPa 0,0 l/m 0 min 0 min 0 W/m 9,7 km/h (2 Bft) 97,87 %
09.04.2021 02:30 3,5 C 2,8 C 0,6 C 78 % 1017,8 hPa 0,0 l/m 0 min 0 min 0 W/m 6,4 km/h (2 Bft) 95,74 %
09.04.2021 02:32 3,5 C 2,8 C 0,6 C 78 % 1017,8 hPa 0,0 l/m 0 min 0 min 0 W/m 6,4 km/h (2 Bft) 97,92 %
09.04.2021 02:34 3,4 C 2,8 C 0,6 C 78 % 1017,8 hPa 0,0 l/m 0 min 0 min 0 W/m 6,4 km/h (2 Bft) 95,74 %
09.04.2021 02:36 3,4 C 2,8 C 0,6 C 78 % 1017,7 hPa 0,0 l/m 0 min 0 min 0 W/m 6,4 km/h (2 Bft) 95,65 %
09.04.2021 02:38 3,4 C 2,8 C 0,6 C 78 % 1017,8 hPa 0,0 l/m 0 min 0 min 0 W/m 6,4 km/h (2 Bft) 97,92 %
09.04.2021 02:40 3,4 C 2,8 C 0,6 C 78 % 1017,8 hPa 0,0 l/m 0 min 0 min 0 W/m 6,4 km/h (2 Bft) 97,37 %
09.04.2021 02:42 3,4 C 2,8 C 0,6 C 78 % 1017,8 hPa 0,0 l/m 0 min 0 min 0 W/m 3,2 km/h (1 Bft) 97,87 %
09.04.2021 02:44 3,4 C 2,8 C 0,6 C 78 % 1017,8 hPa 0,0 l/m 0 min 0 min 0 W/m 3,2 km/h (1 Bft) 97,87 %
09.04.2021 02:46 3,4 C 2,8 C 0,6 C 78 % 1017,7 hPa 0,0 l/m 0 min 0 min 0 W/m 6,4 km/h (2 Bft) 97,87 %
09.04.2021 02:48 3,4 C 2,8 C 0,6 C 78 % 1017,7 hPa 0,0 l/m 0 min 0 min 0 W/m 9,7 km/h (2 Bft) 97,87 %
09.04.2021 02:50 3,4 C 2,8 C 0,6 C 78 % 1017,7 hPa 0,0 l/m 0 min 0 min 0 W/m 6,4 km/h (2 Bft) 97,83 %
09.04.2021 02:52 3,3 C 2,8 C 0,6 C 78 % 1017,7 hPa 0,0 l/m 0 min 0 min 0 W/m 6,4 km/h (2 Bft) 97,87 %
09.04.2021 02:54 3,3 C 2,8 C 0,6 C 78 % 1017,6 hPa 0,0 l/m 0 min 0 min 0 W/m 9,7 km/h (2 Bft) 97,87 %
09.04.2021 02:56 3,3 C 2,8 C 0,6 C 78 % 1017,7 hPa 0,0 l/m 0 min 0 min 0 W/m 3,2 km/h (1 Bft) 95,74 %
09.04.2021 02:58 3,3 C 2,8 C 0,6 C 78 % 1017,6 hPa 0,0 l/m 0 min 0 min 0 W/m 3,2 km/h (1 Bft) 95,74 %
09.04.2021 03:00 3,3 C 2,2 C 0,6 C 78 % 1017,6 hPa 0,0 l/m 0 min 0 min 0 W/m 3,2 km/h (1 Bft) 93,62 %
09.04.2021 03:02 3,3 C 2,2 C 0,6 C 79 % 1017,6 hPa 0,0 l/m 0 min 0 min 0 W/m 3,2 km/h (1 Bft) 97,87 %
09.04.2021 03:04 3,3 C 2,2 C 0,6 C 79 % 1017,6 hPa 0,0 l/m 0 min 0 min 0 W/m 6,4 km/h (2 Bft) 97,87 %
09.04.2021 03:06 3,3 C 2,2 C 0,6 C 79 % 1017,5 hPa 0,0 l/m 0 min 0 min 0 W/m 3,2 km/h (1 Bft) 95,74 %
09.04.2021 03:08 3,2 C 2,2 C 0,6 C 79 % 1017,5 hPa 0,0 l/m 0 min 0 min 0 W/m 6,4 km/h (2 Bft) 95,74 %
09.04.2021 03:10 3,2 C 2,2 C 0,0 C 79 % 1017,5 hPa 0,0 l/m 0 min 0 min 0 W/m 6,4 km/h (2 Bft) 95,74 %
09.04.2021 03:12 3,1 C 2,2 C 0,0 C 79 % 1017,5 hPa 0,0 l/m 0 min 0 min 0 W/m 9,7 km/h (2 Bft) 97,83 %
09.04.2021 03:14 3,1 C 2,2 C 0,0 C 79 % 1017,4 hPa 0,0 l/m 0 min 0 min 0 W/m 3,2 km/h (1 Bft) 95,74 %
09.04.2021 03:16 3,1 C 2,2 C 0,0 C 79 % 1017,4 hPa 0,0 l/m 0 min 0 min 0 W/m 3,2 km/h (1 Bft) 53,33 %
09.04.2021 03:18 3,1 C 2,2 C 0,0 C 79 % 1017,4 hPa 0,0 l/m 0 min 0 min 0 W/m 6,4 km/h (2 Bft) 95,74 %
09.04.2021 03:20 3,1 C 2,2 C 0,0 C 79 % 1017,4 hPa 0,0 l/m 0 min 0 min 0 W/m 3,2 km/h (1 Bft) 95,74 %
09.04.2021 03:22 3,1 C 2,2 C 0,0 C 79 % 1017,4 hPa 0,0 l/m 0 min 0 min 0 W/m 3,2 km/h (1 Bft) 93,62 %
09.04.2021 03:24 3,1 C 2,2 C 0,0 C 79 % 1017,4 hPa 0,0 l/m 0 min 0 min 0 W/m 6,4 km/h (2 Bft) 95,65 %
09.04.2021 03:26 3,0 C 2,2 C 0,0 C 80 % 1017,4 hPa 0,0 l/m 0 min 0 min 0 W/m 9,7 km/h (2 Bft) 95,74 %
09.04.2021 03:28 3,0 C 2,2 C 0,0 C 80 % 1017,4 hPa 0,0 l/m 0 min 0 min 0 W/m 6,4 km/h (2 Bft) 97,87 %
09.04.2021 03:30 3,0 C 2,2 C 0,0 C 80 % 1017,4 hPa 0,0 l/m 0 min 0 min 0 W/m 6,4 km/h (2 Bft) 97,87 %
09.04.2021 03:32 3,0 C 2,2 C 0,0 C 80 % 1017,3 hPa 0,0 l/m 0 min 0 min 0 W/m 6,4 km/h (2 Bft) 97,87 %
09.04.2021 03:34 3,0 C 2,2 C 0,0 C 80 % 1017,3 hPa 0,0 l/m 0 min 0 min 0 W/m 3,2 km/h (1 Bft) 97,87 %
09.04.2021 03:36 3,0 C 2,2 C 0,0 C 80 % 1017,3 hPa 0,0 l/m 0 min 0 min 0 W/m 9,7 km/h (2 Bft) 97,83 %
09.04.2021 03:38 3,0 C 2,2 C 0,0 C 80 % 1017,2 hPa 0,0 l/m 0 min 0 min 0 W/m 6,4 km/h (2 Bft) 97,87 %
09.04.2021 03:40 3,0 C 2,2 C 0,0 C 80 % 1017,2 hPa 0,0 l/m 0 min 0 min 0 W/m 6,4 km/h (2 Bft) 95,74 %
09.04.2021 03:42 2,9 C 2,2 C 0,0 C 80 % 1017,3 hPa 0,0 l/m 0 min 0 min 0 W/m 6,4 km/h (2 Bft) 97,87 %
09.04.2021 03:44 2,9 C 2,2 C 0,0 C 80 % 1017,2 hPa 0,0 l/m 0 min 0 min 0 W/m 9,7 km/h (2 Bft) 97,87 %
09.04.2021 03:46 2,9 C 2,2 C 0,0 C 80 % 1017,2 hPa 0,0 l/m 0 min 0 min 0 W/m 3,2 km/h (1 Bft) 97,87 %
09.04.2021 03:48 2,9 C 2,2 C 0,0 C 80 % 1017,1 hPa 0,0 l/m 0 min 0 min 0 W/m 6,4 km/h (2 Bft) 97,83 %
09.04.2021 03:50 2,9 C 2,2 C 0,0 C 80 % 1017,1 hPa 0,0 l/m 0 min 0 min 0 W/m 6,4 km/h (2 Bft) 95,74 %
09.04.2021 03:52 2,9 C 2,2 C 0,0 C 80 % 1017,1 hPa 0,0 l/m 0 min 0 min 0 W/m 9,7 km/h (2 Bft) 97,87 %
09.04.2021 03:54 2,9 C 2,2 C 0,0 C 80 % 1017,1 hPa 0,0 l/m 0 min 0 min 0 W/m 6,4 km/h (2 Bft) 100,00 %
09.04.2021 03:56 2,9 C 2,2 C 0,0 C 81 % 1017,1 hPa 0,0 l/m 0 min 0 min 0 W/m 3,2 km/h (1 Bft) 100,00 %
09.04.2021 03:58 2,9 C 2,2 C 0,0 C 81 % 1017,0 hPa 0,0 l/m 0 min 0 min 0 W/m 6,4 km/h (2 Bft) 100,00 %
09.04.2021 04:00 2,9 C 2,2 C 0,0 C 81 % 1017,0 hPa 0,0 l/m 0 min 0 min 0 W/m 6,4 km/h (2 Bft) 100,00 %
09.04.2021 04:02 2,9 C 2,2 C 0,0 C 81 % 1017,0 hPa 0,0 l/m 0 min 0 min 0 W/m 12,9 km/h (3 Bft) 100,00 %
09.04.2021 04:04 2,9 C 2,2 C 0,0 C 81 % 1016,9 hPa 0,0 l/m 0 min 0 min 0 W/m 6,4 km/h (2 Bft) 100,00 %
09.04.2021 04:06 2,9 C 2,2 C 0,0 C 81 % 1016,8 hPa 0,0 l/m 0 min 0 min 0 W/m 12,9 km/h (3 Bft) 97,87 %
09.04.2021 04:08 2,9 C 2,2 C 0,0 C 81 % 1016,8 hPa 0,0 l/m 0 min 0 min 0 W/m 12,9 km/h (3 Bft) 100,00 %
09.04.2021 04:10 2,9 C 2,2 C 0,0 C 81 % 1016,8 hPa 0,0 l/m 0 min 0 min 0 W/m 12,9 km/h (3 Bft) 100,00 %
09.04.2021 04:12 2,9 C 2,2 C 0,0 C 81 % 1016,8 hPa 0,0 l/m 0 min 0 min 0 W/m 12,9 km/h (3 Bft) 100,00 %
09.04.2021 04:14 2,9 C 2,2 C 0,0 C 81 % 1016,8 hPa 0,0 l/m 0 min 0 min 0 W/m 9,7 km/h (2 Bft) 100,00 %
09.04.2021 04:16 2,9 C 2,2 C 0,0 C 81 % 1016,8 hPa 0,0 l/m 0 min 0 min 0 W/m 12,9 km/h (3 Bft) 100,00 %
09.04.2021 04:18 2,9 C 2,2 C 0,0 C 81 % 1016,7 hPa 0,0 l/m 0 min 0 min 0 W/m 12,9 km/h (3 Bft) 100,00 %
09.04.2021 04:20 2,9 C 2,2 C 0,0 C 81 % 1016,7 hPa 0,0 l/m 0 min 0 min 0 W/m 9,7 km/h (2 Bft) 100,00 %
09.04.2021 04:22 2,9 C 2,2 C 0,0 C 81 % 1016,7 hPa 0,0 l/m 0 min 0 min 0 W/m 6,4 km/h (2 Bft) 100,00 %
09.04.2021 04:24 2,9 C 2,2 C 0,0 C 81 % 1016,7 hPa 0,0 l/m 0 min 0 min 0 W/m 6,4 km/h (2 Bft) 100,00 %
09.04.2021 04:26 2,9 C 2,2 C 0,0 C 81 % 1016,7 hPa 0,0 l/m 0 min 0 min 0 W/m 6,4 km/h (2 Bft) 97,87 %
09.04.2021 04:28 2,9 C 2,2 C 0,0 C 81 % 1016,7 hPa 0,0 l/m 0 min 0 min 0 W/m 6,4 km/h (2 Bft) 100,00 %
09.04.2021 04:30 2,8 C 2,2 C 0,0 C 81 % 1016,7 hPa 0,0 l/m 0 min 0 min 0 W/m 6,4 km/h (2 Bft) 100,00 %
09.04.2021 04:32 2,8 C 2,2 C 0,0 C 81 % 1016,6 hPa 0,0 l/m 0 min 0 min 0 W/m 6,4 km/h (2 Bft) 100,00 %
09.04.2021 04:34 2,8 C 2,2 C 0,0 C 81 % 1016,6 hPa 0,0 l/m 0 min 0 min 0 W/m 12,9 km/h (3 Bft) 100,00 %
09.04.2021 04:36 2,8 C 2,2 C 0,0 C 81 % 1016,6 hPa 0,0 l/m 0 min 0 min 0 W/m 3,2 km/h (1 Bft) 100,00 %
09.04.2021 04:38 2,8 C 2,2 C 0,0 C 81 % 1016,6 hPa 0,0 l/m 0 min 0 min 0 W/m 6,4 km/h (2 Bft) 100,00 %
09.04.2021 04:40 2,8 C 2,2 C 0,0 C 81 % 1016,6 hPa 0,0 l/m 0 min 0 min 0 W/m 6,4 km/h (2 Bft) 100,00 %
09.04.2021 04:42 2,8 C 2,2 C 0,0 C 81 % 1016,6 hPa 0,0 l/m 0 min 0 min 0 W/m 6,4 km/h (2 Bft) 97,87 %
09.04.2021 04:44 2,8 C 2,2 C 0,0 C 82 % 1016,6 hPa 0,0 l/m 0 min 0 min 0 W/m 6,4 km/h (2 Bft) 100,00 %
09.04.2021 04:46 2,8 C 2,2 C 0,0 C 82 % 1016,5 hPa 0,0 l/m 0 min 0 min 0 W/m 6,4 km/h (2 Bft) 100,00 %
09.04.2021 04:48 2,7 C 2,2 C 0,0 C 82 % 1016,5 hPa 0,0 l/m 0 min 0 min 0 W/m 9,7 km/h (2 Bft) 100,00 %
09.04.2021 04:50 2,7 C 2,2 C 0,0 C 82 % 1016,5 hPa 0,0 l/m 0 min 0 min 0 W/m 9,7 km/h (2 Bft) 100,00 %
09.04.2021 04:52 2,7 C 2,2 C 0,0 C 82 % 1016,4 hPa 0,0 l/m 0 min 0 min 0 W/m 6,4 km/h (2 Bft) 100,00 %
09.04.2021 04:54 2,7 C 2,2 C 0,0 C 82 % 1016,4 hPa 0,0 l/m 0 min 0 min 0 W/m 6,4 km/h (2 Bft) 100,00 %
09.04.2021 04:56 2,6 C 2,2 C 0,0 C 82 % 1016,4 hPa 0,0 l/m 0 min 0 min 0 W/m 6,4 km/h (2 Bft) 100,00 %
09.04.2021 04:58 2,6 C 1,7 C 0,0 C 82 % 1016,4 hPa 0,0 l/m 0 min 0 min 0 W/m 6,4 km/h (2 Bft) 100,00 %
09.04.2021 05:00 2,6 C 1,7 C 0,0 C 82 % 1016,4 hPa 0,0 l/m 0 min 0 min 0 W/m 3,2 km/h (1 Bft) 97,83 %
09.04.2021 05:02 2,6 C 1,7 C 0,0 C 82 % 1016,3 hPa 0,0 l/m 0 min 0 min 0 W/m 3,2 km/h (1 Bft) 97,87 %
09.04.2021 05:04 2,6 C 1,7 C 0,0 C 82 % 1016,3 hPa 0,0 l/m 0 min 0 min 0 W/m 6,4 km/h (2 Bft) 97,87 %
09.04.2021 05:06 2,6 C 1,7 C 0,0 C 82 % 1016,3 hPa 0,0 l/m 0 min 0 min 0 W/m 6,4 km/h (2 Bft) 95,74 %
09.04.2021 05:08 2,6 C 1,7 C 0,0 C 82 % 1016,4 hPa 0,0 l/m 0 min 0 min 0 W/m 6,4 km/h (2 Bft) 93,75 %
09.04.2021 05:10 2,5 C 1,7 C 0,0 C 82 % 1016,3 hPa 0,0 l/m 0 min 0 min 0 W/m 9,7 km/h (2 Bft) 95,65 %
09.04.2021 05:12 2,5 C 1,7 C 0,0 C 82 % 1016,3 hPa 0,0 l/m 0 min 0 min 0 W/m 6,4 km/h (2 Bft) 97,87 %
09.04.2021 05:14 2,5 C 1,7 C 0,0 C 82 % 1016,3 hPa 0,0 l/m 0 min 0 min 0 W/m 12,9 km/h (3 Bft) 97,87 %
09.04.2021 05:16 2,5 C 1,7 C 0,0 C 83 % 1016,3 hPa 0,0 l/m 0 min 0 min 0 W/m 9,7 km/h (2 Bft) 95,74 %
09.04.2021 05:18 2,5 C 1,7 C 0,0 C 82 % 1016,3 hPa 0,0 l/m 0 min 0 min 0 W/m 3,2 km/h (1 Bft) 95,74 %
09.04.2021 05:20 2,5 C 1,7 C 0,0 C 83 % 1016,2 hPa 0,0 l/m 0 min 0 min 0 W/m 9,7 km/h (2 Bft) 95,74 %
09.04.2021 05:22 2,5 C 1,7 C 0,0 C 83 % 1016,2 hPa 0,0 l/m 0 min 0 min 0 W/m 6,4 km/h (2 Bft) 95,65 %
09.04.2021 05:24 2,5 C 1,7 C 0,0 C 83 % 1016,2 hPa 0,0 l/m 0 min 0 min 0 W/m 6,4 km/h (2 Bft) 93,62 %
09.04.2021 05:26 2,5 C 1,7 C 0,0 C 83 % 1016,1 hPa 0,0 l/m 0 min 0 min 0 W/m 3,2 km/h (1 Bft) 95,74 %
09.04.2021 05:28 2,5 C 1,7 C 0,0 C 83 % 1016,1 hPa 0,0 l/m 0 min 0 min 0 W/m 3,2 km/h (1 Bft) 95,74 %
09.04.2021 05:30 2,4 C 1,7 C 0,0 C 83 % 1016,1 hPa 0,0 l/m 0 min 0 min 0 W/m 6,4 km/h (2 Bft) 95,74 %
09.04.2021 05:32 2,4 C 1,7 C 0,0 C 83 % 1016,1 hPa 0,0 l/m 0 min 0 min 0 W/m 3,2 km/h (1 Bft) 95,74 %
09.04.2021 05:34 2,4 C 1,7 C 0,0 C 83 % 1016,1 hPa 0,0 l/m 0 min 0 min 0 W/m 6,4 km/h (2 Bft) 95,65 %
09.04.2021 05:36 2,4 C 1,7 C 0,0 C 83 % 1016,1 hPa 0,0 l/m 0 min 0 min 0 W/m 6,4 km/h (2 Bft) 95,74 %
09.04.2021 05:38 2,4 C 1,7 C 0,0 C 83 % 1016,0 hPa 0,0 l/m 0 min 0 min 0 W/m 6,4 km/h (2 Bft) 95,74 %
09.04.2021 05:40 2,4 C 1,7 C 0,0 C 83 % 1016,0 hPa 0,0 l/m 0 min 0 min 0 W/m 6,4 km/h (2 Bft) 93,62 %
09.04.2021 05:42 2,4 C 1,7 C 0,0 C 83 % 1016,0 hPa 0,0 l/m 0 min 0 min 0 W/m 9,7 km/h (2 Bft) 93,62 %
09.04.2021 05:44 2,4 C 1,7 C 0,0 C 83 % 1015,9 hPa 0,0 l/m 0 min 0 min 0 W/m 6,4 km/h (2 Bft) 95,74 %
09.04.2021 05:46 2,4 C 1,7 C 0,0 C 83 % 1015,9 hPa 0,0 l/m 0 min 0 min 0 W/m 9,7 km/h (2 Bft) 93,48 %
09.04.2021 05:48 2,4 C 1,7 C 0,0 C 83 % 1015,9 hPa 0,0 l/m 0 min 0 min 0 W/m 6,4 km/h (2 Bft) 93,62 %
09.04.2021 05:50 2,4 C 1,7 C 0,0 C 83 % 1015,9 hPa 0,0 l/m 0 min 0 min 0 W/m 3,2 km/h (1 Bft) 89,36 %
09.04.2021 05:52 2,4 C 1,7 C 0,0 C 83 % 1015,9 hPa 0,0 l/m 0 min 0 min 0 W/m 6,4 km/h (2 Bft) 93,62 %
09.04.2021 05:54 2,4 C 1,7 C 0,0 C 83 % 1015,9 hPa 0,0 l/m 0 min 0 min 0 W/m 6,4 km/h (2 Bft) 93,62 %
09.04.2021 05:56 2,3 C 1,7 C 0,0 C 83 % 1015,9 hPa 0,0 l/m 0 min 0 min 0 W/m 6,4 km/h (2 Bft) 95,74 %
09.04.2021 05:58 2,4 C 1,7 C 0,0 C 83 % 1015,9 hPa 0,0 l/m 0 min 0 min 0 W/m 9,7 km/h (2 Bft) 95,65 %
09.04.2021 06:00 2,3 C 1,7 C 0,0 C 83 % 1015,9 hPa 0,0 l/m 0 min 0 min 0 W/m 6,4 km/h (2 Bft) 93,88 %
09.04.2021 06:02 2,3 C 1,7 C -0,5 C 83 % 1015,9 hPa 0,0 l/m 0 min 0 min 0 W/m 6,4 km/h (2 Bft) 95,83 %
09.04.2021 06:04 2,3 C 1,7 C -0,5 C 84 % 1015,9 hPa 0,0 l/m 0 min 0 min 0 W/m 6,4 km/h (2 Bft) 95,74 %
09.04.2021 06:08 2,3 C 1,7 C -0,5 C 83 % 1015,8 hPa 0,0 l/m 0 min 0 min 0 W/m 6,4 km/h (2 Bft) 94,68 %
09.04.2021 06:10 2,3 C 1,7 C -0,5 C 83 % 1015,8 hPa 0,0 l/m 0 min 0 min 0 W/m 3,2 km/h (1 Bft) 94,29 %
09.04.2021 06:12 2,3 C 1,7 C -0,5 C 83 % 1015,8 hPa 0,0 l/m 0 min 0 min 0 W/m 12,9 km/h (3 Bft) 96,15 %
09.04.2021 06:14 2,3 C 1,7 C -0,5 C 83 % 1015,9 hPa 0,0 l/m 0 min 0 min 0 W/m 6,4 km/h (2 Bft) 95,74 %
09.04.2021 06:16 2,3 C 1,7 C 0,0 C 84 % 1015,8 hPa 0,0 l/m 0 min 0 min 0 W/m 6,4 km/h (2 Bft) 95,83 %
09.04.2021 06:18 2,3 C 1,7 C 0,0 C 84 % 1015,8 hPa 0,0 l/m 0 min 0 min 0 W/m 12,9 km/h (3 Bft) 95,74 %
09.04.2021 06:20 2,3 C 1,7 C 0,0 C 84 % 1015,8 hPa 0,0 l/m 0 min 0 min 0 W/m 6,4 km/h (2 Bft) 95,83 %
09.04.2021 06:22 2,3 C 1,7 C 0,0 C 84 % 1015,8 hPa 0,0 l/m 0 min 0 min 0 W/m 3,2 km/h (1 Bft) 95,65 %
09.04.2021 06:24 2,3 C 1,7 C -0,5 C 84 % 1015,7 hPa 0,0 l/m 0 min 0 min 0 W/m 6,4 km/h (2 Bft) 93,62 %
09.04.2021 06:26 2,3 C 1,7 C -0,5 C 84 % 1015,7 hPa 0,0 l/m 0 min 0 min 0 W/m 6,4 km/h (2 Bft) 95,74 %
09.04.2021 06:28 2,3 C 1,7 C -0,5 C 84 % 1015,7 hPa 0,0 l/m 0 min 0 min 0 W/m 3,2 km/h (1 Bft) 95,74 %
09.04.2021 06:30 2,3 C 1,7 C -0,5 C 84 % 1015,7 hPa 0,0 l/m 0 min 0 min 0 W/m 3,2 km/h (1 Bft) 97,87 %
09.04.2021 06:32 2,3 C 1,7 C -0,5 C 84 % 1015,7 hPa 0,0 l/m 0 min 0 min 0 W/m 6,4 km/h (2 Bft) 95,74 %
09.04.2021 06:34 2,3 C 1,7 C -0,5 C 84 % 1015,6 hPa 0,0 l/m 0 min 0 min 0 W/m 6,4 km/h (2 Bft) 97,83 %
09.04.2021 06:36 2,3 C 1,7 C -0,5 C 84 % 1015,6 hPa 0,0 l/m 0 min 0 min 0 W/m 6,4 km/h (2 Bft) 93,62 %
09.04.2021 06:38 2,3 C 1,7 C -0,5 C 84 % 1015,6 hPa 0,0 l/m 0 min 0 min 0 W/m 12,9 km/h (3 Bft) 97,92 %
09.04.2021 06:40 2,3 C 1,7 C -0,5 C 84 % 1015,6 hPa 0,0 l/m 0 min 0 min 0 W/m 6,4 km/h (2 Bft) 97,87 %
09.04.2021 06:42 2,3 C 1,7 C -0,5 C 84 % 1015,6 hPa 0,0 l/m 0 min 0 min 0 W/m 3,2 km/h (1 Bft) 95,74 %
09.04.2021 06:44 2,3 C 1,7 C -0,5 C 84 % 1015,7 hPa 0,0 l/m 0 min 0 min 0 W/m 3,2 km/h (1 Bft) 57,45 %
09.04.2021 06:46 2,3 C 1,7 C -0,5 C 84 % 1015,6 hPa 0,0 l/m 0 min 0 min 0 W/m 9,7 km/h (2 Bft) 100,00 %
09.04.2021 06:48 2,3 C 1,7 C -0,5 C 84 % 1015,6 hPa 0,0 l/m 0 min 0 min 0 W/m 6,4 km/h (2 Bft) 100,00 %
09.04.2021 06:50 2,2 C 1,7 C -0,5 C 84 % 1015,6 hPa 0,0 l/m 0 min 0 min 0 W/m 6,4 km/h (2 Bft) 97,87 %
09.04.2021 06:52 2,3 C 1,7 C -0,5 C 84 % 1015,6 hPa 0,0 l/m 0 min 0 min 0 W/m 3,2 km/h (1 Bft) 100,00 %
09.04.2021 06:54 2,2 C 1,7 C -0,5 C 84 % 1015,7 hPa 0,0 l/m 0 min 0 min 0 W/m 3,2 km/h (1 Bft) 100,00 %
09.04.2021 06:56 2,3 C 1,7 C -0,5 C 84 % 1015,7 hPa 0,0 l/m 0 min 0 min 0 W/m 6,4 km/h (2 Bft) 100,00 %
09.04.2021 06:58 2,2 C 1,7 C -0,5 C 84 % 1015,7 hPa 0,0 l/m 0 min 0 min 0 W/m 6,4 km/h (2 Bft) 100,00 %
09.04.2021 07:00 2,2 C 1,7 C -0,5 C 84 % 1015,7 hPa 0,0 l/m 0 min 0 min 5 W/m 6,4 km/h (2 Bft) 97,87 %
09.04.2021 07:02 2,2 C 1,7 C -0,5 C 84 % 1015,7 hPa 0,0 l/m 0 min 0 min 6 W/m 3,2 km/h (1 Bft) 97,87 %
09.04.2021 07:04 2,2 C 1,7 C -0,5 C 84 % 1015,6 hPa 0,0 l/m 0 min 0 min 7 W/m 6,4 km/h (2 Bft) 100,00 %
09.04.2021 07:06 2,2 C 1,7 C -0,5 C 84 % 1015,6 hPa 0,0 l/m 0 min 0 min 9 W/m 6,4 km/h (2 Bft) 100,00 %
09.04.2021 07:08 2,2 C 1,7 C -0,5 C 84 % 1015,6 hPa 0,0 l/m 0 min 0 min 11 W/m 6,4 km/h (2 Bft) 100,00 %
09.04.2021 07:10 2,2 C 1,7 C -0,5 C 84 % 1015,6 hPa 0,0 l/m 0 min 0 min 13 W/m 3,2 km/h (1 Bft) 100,00 %
09.04.2021 07:12 2,2 C 1,7 C -0,5 C 84 % 1015,5 hPa 0,0 l/m 0 min 0 min 15 W/m 3,2 km/h (1 Bft) 100,00 %
09.04.2021 07:14 2,2 C 1,7 C -0,5 C 84 % 1015,5 hPa 0,0 l/m 0 min 0 min 18 W/m 6,4 km/h (2 Bft) 95,74 %
09.04.2021 07:16 2,2 C 1,7 C -0,5 C 84 % 1015,5 hPa 0,0 l/m 0 min 0 min 19 W/m 3,2 km/h (1 Bft) 97,87 %
09.04.2021 07:18 2,2 C 1,7 C 0,0 C 84 % 1015,5 hPa 0,0 l/m 0 min 0 min 21 W/m 3,2 km/h (1 Bft) 100,00 %
09.04.2021 07:20 2,2 C 1,7 C 0,0 C 84 % 1015,5 hPa 0,0 l/m 0 min 0 min 24 W/m 3,2 km/h (1 Bft) 100,00 %
09.04.2021 07:22 2,2 C 1,7 C 0,0 C 84 % 1015,5 hPa 0,0 l/m 0 min 0 min 26 W/m 6,4 km/h (2 Bft) 97,87 %
09.04.2021 07:24 2,2 C 1,7 C 0,0 C 84 % 1015,5 hPa 0,0 l/m 0 min 0 min 26 W/m 6,4 km/h (2 Bft) 97,87 %
09.04.2021 07:26 2,2 C 1,7 C 0,0 C 85 % 1015,6 hPa 0,0 l/m 0 min 0 min 29 W/m 12,9 km/h (3 Bft) 100,00 %
09.04.2021 07:28 2,3 C 2,2 C 0,0 C 85 % 1015,5 hPa 0,0 l/m 0 min 0 min 32 W/m 12,9 km/h (3 Bft) 97,87 %
09.04.2021 07:30 2,3 C 2,2 C 0,0 C 85 % 1015,5 hPa 0,0 l/m 0 min 0 min 33 W/m 6,4 km/h (2 Bft) 97,87 %
09.04.2021 07:32 2,3 C 2,2 C 0,0 C 85 % 1015,6 hPa 0,0 l/m 0 min 0 min 36 W/m 6,4 km/h (2 Bft) 97,83 %
09.04.2021 07:34 2,3 C 2,2 C 0,0 C 85 % 1015,6 hPa 0,0 l/m 0 min 0 min 37 W/m 3,2 km/h (1 Bft) 40,00 %
09.04.2021 07:36 2,3 C 2,2 C 0,0 C 85 % 1015,6 hPa 0,0 l/m 0 min 0 min 39 W/m 6,4 km/h (2 Bft) 98,28 %
09.04.2021 07:38 2,3 C 2,2 C 0,0 C 85 % 1015,6 hPa 0,0 l/m 0 min 0 min 40 W/m 6,4 km/h (2 Bft) 97,87 %
09.04.2021 07:40 2,4 C 2,2 C 0,0 C 85 % 1015,6 hPa 0,0 l/m 0 min 0 min 42 W/m 6,4 km/h (2 Bft) 94,29 %
09.04.2021 07:42 2,4 C 2,2 C 0,0 C 85 % 1015,6 hPa 0,0 l/m 0 min 0 min 45 W/m 6,4 km/h (2 Bft) 98,11 %
09.04.2021 07:44 2,4 C 2,2 C 0,0 C 85 % 1015,6 hPa 0,0 l/m 0 min 0 min 47 W/m 6,4 km/h (2 Bft) 97,87 %
09.04.2021 07:46 2,4 C 2,2 C 0,6 C 85 % 1015,6 hPa 0,0 l/m 0 min 0 min 49 W/m 6,4 km/h (2 Bft) 97,83 %
09.04.2021 07:48 2,4 C 2,2 C 0,6 C 85 % 1015,6 hPa 0,0 l/m 0 min 0 min 52 W/m 6,4 km/h (2 Bft) 97,87 %
09.04.2021 07:50 2,5 C 2,8 C 0,6 C 85 % 1015,5 hPa 0,0 l/m 0 min 0 min 53 W/m 6,4 km/h (2 Bft) 97,87 %
09.04.2021 07:52 2,5 C 2,8 C 0,6 C 85 % 1015,5 hPa 0,0 l/m 0 min 0 min 55 W/m 6,4 km/h (2 Bft) 95,74 %
09.04.2021 07:54 2,5 C 2,8 C 0,6 C 85 % 1015,5 hPa 0,0 l/m 0 min 0 min 59 W/m 9,7 km/h (2 Bft) 97,87 %
09.04.2021 07:56 2,6 C 2,8 C 0,6 C 85 % 1015,5 hPa 0,0 l/m 0 min 0 min 61 W/m 12,9 km/h (3 Bft) 95,83 %
09.04.2021 07:58 2,6 C 2,8 C 0,6 C 85 % 1015,5 hPa 0,0 l/m 0 min 0 min 63 W/m 12,9 km/h (3 Bft) 97,83 %
09.04.2021 08:00 2,6 C 2,8 C 0,6 C 85 % 1015,5 hPa 0,0 l/m 0 min 0 min 66 W/m 9,7 km/h (2 Bft) 97,87 %
09.04.2021 08:02 2,6 C 2,8 C 0,6 C 85 % 1015,5 hPa 0,0 l/m 0 min 0 min 69 W/m 9,7 km/h (2 Bft) 93,75 %
09.04.2021 08:04 2,7 C 2,8 C 0,6 C 85 % 1015,5 hPa 0,0 l/m 0 min 0 min 72 W/m 12,9 km/h (3 Bft) 97,87 %
09.04.2021 08:06 2,8 C 2,8 C 0,6 C 85 % 1015,5 hPa 0,0 l/m 0 min 0 min 75 W/m 9,7 km/h (2 Bft) 100,00 %
09.04.2021 08:08 2,8 C 2,8 C 0,6 C 85 % 1015,5 hPa 0,0 l/m 0 min 0 min 76 W/m 6,4 km/h (2 Bft) 100,00 %
09.04.2021 08:10 2,8 C 2,8 C 0,6 C 85 % 1015,5 hPa 0,0 l/m 0 min 0 min 77 W/m 9,7 km/h (2 Bft) 100,00 %
09.04.2021 08:12 2,9 C 2,8 C 0,6 C 85 % 1015,5 hPa 0,0 l/m 0 min 0 min 77 W/m 9,7 km/h (2 Bft) 100,00 %
09.04.2021 08:14 2,9 C 3,3 C 1,1 C 85 % 1015,5 hPa 0,0 l/m 0 min 0 min 79 W/m 9,7 km/h (2 Bft) 100,00 %
09.04.2021 08:16 2,9 C 3,3 C 1,1 C 84 % 1015,5 hPa 0,0 l/m 0 min 0 min 81 W/m 9,7 km/h (2 Bft) 100,00 %
09.04.2021 08:18 3,0 C 3,3 C 1,1 C 84 % 1015,5 hPa 0,0 l/m 0 min 0 min 82 W/m 9,7 km/h (2 Bft) 97,87 %
09.04.2021 08:20 3,0 C 3,3 C 1,1 C 84 % 1015,5 hPa 0,0 l/m 0 min 0 min 84 W/m 6,4 km/h (2 Bft) 97,83 %
09.04.2021 08:22 3,1 C 3,3 C 1,1 C 84 % 1015,5 hPa 0,0 l/m 0 min 0 min 87 W/m 9,7 km/h (2 Bft) 95,74 %
09.04.2021 08:24 3,1 C 3,3 C 1,1 C 84 % 1015,4 hPa 0,0 l/m 0 min 0 min 90 W/m 9,7 km/h (2 Bft) 95,74 %
09.04.2021 08:26 3,2 C 3,3 C 1,1 C 84 % 1015,4 hPa 0,0 l/m 0 min 0 min 94 W/m 9,7 km/h (2 Bft) 100,00 %
09.04.2021 08:28 3,3 C 3,9 C 1,1 C 84 % 1015,4 hPa 0,0 l/m 0 min 0 min 95 W/m 6,4 km/h (2 Bft) 100,00 %
09.04.2021 08:30 3,3 C 3,9 C 1,7 C 84 % 1015,4 hPa 0,0 l/m 0 min 0 min 97 W/m 6,4 km/h (2 Bft) 100,00 %
09.04.2021 08:32 3,4 C 3,9 C 1,7 C 84 % 1015,4 hPa 0,0 l/m 0 min 0 min 99 W/m 9,7 km/h (2 Bft) 95,74 %
09.04.2021 08:34 3,5 C 3,9 C 1,7 C 84 % 1015,4 hPa 0,0 l/m 0 min 0 min 105 W/m 9,7 km/h (2 Bft) 100,00 %
09.04.2021 08:36 3,5 C 3,9 C 1,7 C 83 % 1015,4 hPa 0,0 l/m 0 min 0 min 111 W/m 6,4 km/h (2 Bft) 100,00 %
09.04.2021 08:38 3,6 C 4,4 C 1,7 C 83 % 1015,3 hPa 0,0 l/m 0 min 0 min 119 W/m 12,9 km/h (3 Bft) 97,87 %
09.04.2021 08:40 3,6 C 4,4 C 1,7 C 83 % 1015,4 hPa 0,0 l/m 0 min 0 min 126 W/m 6,4 km/h (2 Bft) 100,00 %
09.04.2021 08:42 3,7 C 4,4 C 2,3 C 83 % 1015,4 hPa 0,0 l/m 0 min 0 min 130 W/m 6,4 km/h (2 Bft) 97,87 %
09.04.2021 08:44 3,8 C 4,4 C 2,3 C 83 % 1015,4 hPa 0,0 l/m 0 min 0 min 134 W/m 9,7 km/h (2 Bft) 100,00 %
09.04.2021 08:46 3,9 C 5,0 C 2,3 C 83 % 1015,4 hPa 0,0 l/m 0 min 0 min 132 W/m 6,4 km/h (2 Bft) 100,00 %
09.04.2021 08:48 3,9 C 5,0 C 2,3 C 83 % 1015,4 hPa 0,0 l/m 0 min 0 min 132 W/m 6,4 km/h (2 Bft) 100,00 %
09.04.2021 08:50 4,0 C 5,0 C 2,8 C 83 % 1015,4 hPa 0,0 l/m 0 min 0 min 135 W/m 6,4 km/h (2 Bft) 97,87 %
09.04.2021 08:52 4,1 C 5,0 C 2,8 C 82 % 1015,4 hPa 0,0 l/m 0 min 0 min 139 W/m 6,4 km/h (2 Bft) 97,87 %
09.04.2021 08:54 4,2 C 5,6 C 2,8 C 82 % 1015,4 hPa 0,0 l/m 0 min 0 min 141 W/m 6,4 km/h (2 Bft) 97,14 %
09.04.2021 08:56 4,3 C 5,6 C 2,8 C 82 % 1015,4 hPa 0,0 l/m 0 min 0 min 145 W/m 9,7 km/h (2 Bft) 98,28 %
09.04.2021 08:58 4,4 C 5,6 C 2,8 C 82 % 1015,4 hPa 0,0 l/m 0 min 0 min 153 W/m 6,4 km/h (2 Bft) 94,29 %
09.04.2021 09:00 4,5 C 5,6 C 2,8 C 82 % 1015,4 hPa 0,0 l/m 2 min 0 min 184 W/m 3,2 km/h (1 Bft) 96,61 %
09.04.2021 09:02 4,6 C 5,6 C 3,4 C 82 % 1015,3 hPa 0,0 l/m 2 min 0 min 209 W/m 12,9 km/h (3 Bft) 97,87 %
09.04.2021 09:04 4,7 C 6,1 C 3,4 C 81 % 1015,3 hPa 0,0 l/m 2 min 0 min 209 W/m 12,9 km/h (3 Bft) 94,29 %
09.04.2021 09:06 4,8 C 6,1 C 3,4 C 81 % 1015,3 hPa 0,0 l/m 2 min 0 min 205 W/m 6,4 km/h (2 Bft) 98,28 %
09.04.2021 09:08 4,9 C 6,1 C 3,4 C 81 % 1015,3 hPa 0,0 l/m 2 min 0 min 199 W/m 6,4 km/h (2 Bft) 97,87 %
09.04.2021 09:10 5,0 C 6,1 C 3,4 C 81 % 1015,3 hPa 0,0 l/m 2 min 0 min 209 W/m 3,2 km/h (1 Bft) 97,14 %
09.04.2021 09:12 5,1 C 6,7 C 3,4 C 81 % 1015,3 hPa 0,0 l/m 2 min 0 min 216 W/m 6,4 km/h (2 Bft) 97,87 %
09.04.2021 09:14 5,1 C 6,7 C 3,4 C 80 % 1015,3 hPa 0,0 l/m 2 min 0 min 230 W/m 3,2 km/h (1 Bft) 96,23 %
09.04.2021 09:16 5,3 C 7,2 C 3,9 C 80 % 1015,2 hPa 0,0 l/m 2 min 0 min 244 W/m 3,2 km/h (1 Bft) 97,56 %
09.04.2021 09:18 5,4 C 7,8 C 3,9 C 80 % 1015,2 hPa 0,0 l/m 2 min 0 min 278 W/m 3,2 km/h (1 Bft) 96,23 %
09.04.2021 09:20 5,6 C 8,3 C 3,9 C 79 % 1015,3 hPa 0,0 l/m 2 min 0 min 291 W/m 12,9 km/h (3 Bft) 97,83 %
09.04.2021 09:22 5,8 C 9,4 C 3,9 C 78 % 1015,3 hPa 0,0 l/m 2 min 0 min 293 W/m 6,4 km/h (2 Bft) 97,87 %
09.04.2021 09:24 6,0 C 10,0 C 4,5 C 77 % 1015,3 hPa 0,0 l/m 2 min 0 min 318 W/m 6,4 km/h (2 Bft) 97,87 %
09.04.2021 09:26 6,3 C 10,0 C 4,5 C 77 % 1015,3 hPa 0,0 l/m 2 min 0 min 303 W/m 16,1 km/h (3 Bft) 95,74 %
09.04.2021 09:28 6,4 C 10,0 C 4,5 C 76 % 1015,2 hPa 0,0 l/m 2 min 0 min 264 W/m 12,9 km/h (3 Bft) 97,87 %
09.04.2021 09:30 6,6 C 10,0 C 5,0 C 75 % 1015,1 hPa 0,0 l/m 2 min 0 min 254 W/m 9,7 km/h (2 Bft) 97,83 %
09.04.2021 09:32 6,8 C 10,0 C 5,0 C 75 % 1015,2 hPa 0,0 l/m 2 min 0 min 261 W/m 9,7 km/h (2 Bft) 97,92 %
09.04.2021 09:34 6,9 C 10,0 C 5,6 C 74 % 1015,2 hPa 0,0 l/m 2 min 0 min 280 W/m 12,9 km/h (3 Bft) 97,87 %
09.04.2021 09:36 7,1 C 10,0 C 6,1 C 73 % 1015,2 hPa 0,0 l/m 2 min 0 min 307 W/m 12,9 km/h (3 Bft) 97,87 %
09.04.2021 09:38 7,3 C 10,6 C 6,7 C 73 % 1015,1 hPa 0,0 l/m 2 min 0 min 339 W/m 6,4 km/h (2 Bft) 97,92 %
09.04.2021 09:40 7,5 C 11,7 C 7,3 C 72 % 1015,2 hPa 0,0 l/m 2 min 0 min 409 W/m 12,9 km/h (3 Bft) 95,74 %
09.04.2021 09:42 7,7 C 12,2 C 7,3 C 72 % 1015,1 hPa 0,0 l/m 2 min 0 min 443 W/m 12,9 km/h (3 Bft) 48,72 %
09.04.2021 09:44 7,9 C 11,7 C 7,8 C 71 % 1015,1 hPa 0,0 l/m 2 min 0 min 417 W/m 19,3 km/h (3 Bft) 97,87 %
09.04.2021 09:46 8,0 C 12,2 C 7,8 C 69 % 1015,1 hPa 0,0 l/m 2 min 0 min 429 W/m 19,3 km/h (3 Bft) 97,87 %
09.04.2021 09:48 8,2 C 12,2 C 8,4 C 69 % 1015,0 hPa 0,0 l/m 2 min 0 min 482 W/m 12,9 km/h (3 Bft) 97,87 %
09.04.2021 09:50 8,4 C 12,2 C 8,4 C 69 % 1015,0 hPa 0,0 l/m 2 min 0 min 494 W/m 16,1 km/h (3 Bft) 97,87 %
09.04.2021 09:52 8,5 C 12,8 C 8,4 C 69 % 1015,1 hPa 0,0 l/m 2 min 0 min 425 W/m 12,9 km/h (3 Bft) 97,87 %
09.04.2021 09:54 8,6 C 12,2 C 8,4 C 68 % 1015,1 hPa 0,0 l/m 2 min 0 min 412 W/m 16,1 km/h (3 Bft) 97,83 %
09.04.2021 09:56 8,7 C 11,7 C 8,4 C 68 % 1015,1 hPa 0,0 l/m 2 min 0 min 385 W/m 19,3 km/h (3 Bft) 97,87 %
09.04.2021 09:58 8,8 C 11,7 C 8,4 C 67 % 1015,1 hPa 0,0 l/m 2 min 0 min 398 W/m 6,4 km/h (2 Bft) 93,62 %
09.04.2021 10:00 8,8 C 11,1 C 7,8 C 67 % 1015,1 hPa 0,0 l/m 2 min 0 min 401 W/m 29,0 km/h (5 Bft) 97,87 %
09.04.2021 10:02 8,9 C 11,7 C 7,8 C 67 % 1015,1 hPa 0,0 l/m 2 min 0 min 422 W/m 16,1 km/h (3 Bft) 97,92 %
09.04.2021 10:04 8,9 C 12,2 C 8,4 C 67 % 1015,1 hPa 0,0 l/m 2 min 0 min 408 W/m 6,4 km/h (2 Bft) 97,87 %
09.04.2021 10:06 9,0 C 12,8 C 8,4 C 68 % 1015,1 hPa 0,0 l/m 2 min 0 min 394 W/m 6,4 km/h (2 Bft) 97,83 %
09.04.2021 10:08 9,1 C 12,2 C 8,9 C 67 % 1015,0 hPa 0,0 l/m 2 min 0 min 371 W/m 16,1 km/h (3 Bft) 97,96 %
09.04.2021 10:10 9,3 C 12,2 C 8,9 C 67 % 1015,0 hPa 0,0 l/m 2 min 0 min 361 W/m 19,3 km/h (3 Bft) 97,87 %
09.04.2021 10:12 9,3 C 12,2 C 8,9 C 67 % 1015,0 hPa 0,0 l/m 2 min 0 min 322 W/m 9,7 km/h (2 Bft) 95,74 %
09.04.2021 10:14 9,4 C 12,2 C 9,5 C 67 % 1015,0 hPa 0,0 l/m 2 min 0 min 341 W/m 16,1 km/h (3 Bft) 95,74 %
09.04.2021 10:16 9,4 C 12,2 C 10,0 C 66 % 1015,0 hPa 0,0 l/m 2 min 0 min 386 W/m 16,1 km/h (3 Bft) 95,74 %
09.04.2021 10:18 9,5 C 12,2 C 10,0 C 66 % 1015,0 hPa 0,0 l/m 2 min 0 min 437 W/m 19,3 km/h (3 Bft) 97,83 %
09.04.2021 10:20 9,5 C 11,7 C 9,5 C 65 % 1015,0 hPa 0,0 l/m 2 min 0 min 380 W/m 16,1 km/h (3 Bft) 100,00 %
09.04.2021 10:22 9,5 C 11,7 C 9,5 C 66 % 1015,1 hPa 0,0 l/m 2 min 0 min 304 W/m 12,9 km/h (3 Bft) 100,00 %
09.04.2021 10:24 9,5 C 11,1 C 9,5 C 66 % 1015,1 hPa 0,0 l/m 2 min 0 min 308 W/m 16,1 km/h (3 Bft) 97,87 %
09.04.2021 10:26 9,5 C 11,7 C 9,5 C 66 % 1015,1 hPa 0,0 l/m 2 min 0 min 320 W/m 12,9 km/h (3 Bft) 100,00 %
09.04.2021 10:28 9,5 C 11,7 C 9,5 C 65 % 1015,1 hPa 0,0 l/m 2 min 0 min 329 W/m 12,9 km/h (3 Bft) 100,00 %
09.04.2021 10:30 9,5 C 11,7 C 9,5 C 66 % 1015,1 hPa 0,0 l/m 2 min 0 min 294 W/m 12,9 km/h (3 Bft) 97,87 %
09.04.2021 10:32 9,6 C 12,2 C 10,0 C 66 % 1015,1 hPa 0,0 l/m 2 min 0 min 287 W/m 3,2 km/h (1 Bft) 100,00 %
09.04.2021 10:34 9,8 C 12,2 C 10,0 C 67 % 1015,1 hPa 0,0 l/m 2 min 0 min 305 W/m 6,4 km/h (2 Bft) 97,87 %
09.04.2021 10:36 9,8 C 12,8 C 10,6 C 67 % 1015,1 hPa 0,0 l/m 2 min 0 min 372 W/m 3,2 km/h (1 Bft) 100,00 %
09.04.2021 10:38 9,9 C 12,8 C 10,6 C 66 % 1015,1 hPa 0,0 l/m 2 min 0 min 388 W/m 12,9 km/h (3 Bft) 100,00 %
09.04.2021 10:40 9,9 C 12,8 C 10,6 C 65 % 1015,1 hPa 0,0 l/m 2 min 0 min 348 W/m 12,9 km/h (3 Bft) 100,00 %
09.04.2021 10:42 10,0 C 12,8 C 10,6 C 66 % 1015,1 hPa 0,0 l/m 2 min 0 min 400 W/m 6,4 km/h (2 Bft) 100,00 %
09.04.2021 10:44 10,1 C 13,3 C 11,1 C 66 % 1015,1 hPa 0,0 l/m 2 min 0 min 397 W/m 6,4 km/h (2 Bft) 100,00 %
09.04.2021 10:46 10,1 C 12,8 C 11,1 C 65 % 1015,1 hPa 0,0 l/m 2 min 0 min 354 W/m 16,1 km/h (3 Bft) 100,00 %
09.04.2021 10:48 10,2 C 12,8 C 10,6 C 65 % 1015,0 hPa 0,0 l/m 2 min 0 min 311 W/m 12,9 km/h (3 Bft) 100,00 %
09.04.2021 10:50 10,2 C 12,2 C 10,6 C 65 % 1015,1 hPa 0,0 l/m 2 min 0 min 370 W/m 12,9 km/h (3 Bft) 100,00 %
09.04.2021 10:52 10,1 C 12,2 C 10,6 C 64 % 1015,1 hPa 0,0 l/m 2 min 0 min 425 W/m 12,9 km/h (3 Bft) 100,00 %
09.04.2021 10:54 10,1 C 12,2 C 10,6 C 65 % 1015,1 hPa 0,0 l/m 2 min 0 min 429 W/m 9,7 km/h (2 Bft) 97,87 %
09.04.2021 10:56 10,2 C 12,2 C 10,6 C 65 % 1015,1 hPa 0,0 l/m 2 min 0 min 379 W/m 12,9 km/h (3 Bft) 100,00 %
09.04.2021 10:58 10,2 C 12,2 C 10,0 C 64 % 1015,1 hPa 0,0 l/m 2 min 0 min 398 W/m 16,1 km/h (3 Bft) 97,87 %
09.04.2021 11:00 10,3 C 12,8 C 10,6 C 65 % 1015,1 hPa 0,0 l/m 2 min 0 min 495 W/m 12,9 km/h (3 Bft) 100,00 %
09.04.2021 11:02 10,3 C 12,8 C 11,1 C 65 % 1015,1 hPa 0,0 l/m 2 min 0 min 636 W/m 16,1 km/h (3 Bft) 100,00 %
09.04.2021 11:04 10,4 C 12,2 C 10,6 C 65 % 1015,1 hPa 0,0 l/m 2 min 0 min 498 W/m 12,9 km/h (3 Bft) 100,00 %
09.04.2021 11:06 10,4 C 12,2 C 10,0 C 65 % 1015,1 hPa 0,0 l/m 2 min 0 min 425 W/m 16,1 km/h (3 Bft) 100,00 %
09.04.2021 11:08 10,5 C 12,2 C 10,0 C 64 % 1015,1 hPa 0,0 l/m 2 min 0 min 452 W/m 16,1 km/h (3 Bft) 97,14 %
09.04.2021 11:10 10,5 C 12,2 C 10,6 C 64 % 1015,1 hPa 0,0 l/m 2 min 0 min 492 W/m 12,9 km/h (3 Bft) 98,11 %
09.04.2021 11:12 10,5 C 12,2 C 10,0 C 64 % 1015,1 hPa 0,0 l/m 2 min 0 min 389 W/m 16,1 km/h (3 Bft) 97,87 %
09.04.2021 11:14 10,5 C 12,2 C 10,0 C 64 % 1015,1 hPa 0,0 l/m 0 min 0 min 285 W/m 9,7 km/h (2 Bft) 97,87 %
09.04.2021 11:16 10,5 C 11,7 C 9,5 C 63 % 1015,1 hPa 0,0 l/m 2 min 0 min 302 W/m 19,3 km/h (3 Bft) 97,56 %
09.04.2021 11:18 10,4 C 11,7 C 9,5 C 63 % 1015,1 hPa 0,0 l/m 2 min 0 min 368 W/m 22,5 km/h (4 Bft) 94,23 %
09.04.2021 11:20 10,4 C 11,7 C 10,0 C 64 % 1015,1 hPa 0,0 l/m 2 min 0 min 426 W/m 6,4 km/h (2 Bft) 95,74 %
09.04.2021 11:22 10,5 C 12,2 C 10,6 C 64 % 1015,0 hPa 0,0 l/m 2 min 0 min 452 W/m 16,1 km/h (3 Bft) 97,87 %
09.04.2021 11:24 10,5 C 12,2 C 10,6 C 64 % 1015,0 hPa 0,0 l/m 2 min 0 min 468 W/m 16,1 km/h (3 Bft) 95,74 %
09.04.2021 11:26 10,6 C 12,8 C 10,6 C 64 % 1015,0 hPa 0,0 l/m 2 min 0 min 436 W/m 9,7 km/h (2 Bft) 93,75 %
09.04.2021 11:28 10,6 C 12,8 C 10,6 C 64 % 1015,0 hPa 0,0 l/m 2 min 0 min 454 W/m 16,1 km/h (3 Bft) 95,65 %
09.04.2021 11:30 10,8 C 13,3 C 10,6 C 64 % 1015,0 hPa 0,0 l/m 2 min 0 min 457 W/m 16,1 km/h (3 Bft) 97,87 %
09.04.2021 11:32 10,9 C 13,9 C 12,3 C 64 % 1015,0 hPa 0,0 l/m 2 min 0 min 457 W/m 6,4 km/h (2 Bft) 97,92 %
09.04.2021 11:34 11,1 C 13,9 C 12,3 C 64 % 1015,1 hPa 0,0 l/m 2 min 0 min 404 W/m 12,9 km/h (3 Bft) 95,74 %
09.04.2021 11:36 11,2 C 13,9 C 12,3 C 63 % 1015,0 hPa 0,0 l/m 2 min 0 min 400 W/m 12,9 km/h (3 Bft) 93,62 %
09.04.2021 11:38 11,3 C 13,3 C 12,3 C 62 % 1015,0 hPa 0,0 l/m 2 min 0 min 363 W/m 19,3 km/h (3 Bft) 97,92 %
09.04.2021 11:40 11,3 C 13,3 C 12,3 C 62 % 1015,0 hPa 0,0 l/m 2 min 0 min 349 W/m 19,3 km/h (3 Bft) 95,65 %
09.04.2021 11:42 11,4 C 13,9 C 12,8 C 63 % 1014,9 hPa 0,0 l/m 2 min 0 min 358 W/m 19,3 km/h (3 Bft) 93,62 %
09.04.2021 11:44 11,4 C 13,9 C 13,4 C 62 % 1014,9 hPa 0,0 l/m 2 min 0 min 609 W/m 12,9 km/h (3 Bft) 95,74 %
09.04.2021 11:46 11,3 C 13,9 C 13,9 C 62 % 1015,0 hPa 0,0 l/m 2 min 0 min 635 W/m 12,9 km/h (3 Bft) 91,49 %
09.04.2021 11:48 11,3 C 13,9 C 13,9 C 62 % 1015,0 hPa 0,0 l/m 2 min 0 min 635 W/m 16,1 km/h (3 Bft) 97,87 %
09.04.2021 11:50 11,3 C 13,9 C 14,5 C 62 % 1015,0 hPa 0,0 l/m 2 min 0 min 682 W/m 16,1 km/h (3 Bft) 93,62 %
09.04.2021 11:52 11,3 C 13,9 C 14,5 C 62 % 1015,0 hPa 0,0 l/m 2 min 0 min 707 W/m 19,3 km/h (3 Bft) 97,83 %
09.04.2021 11:54 11,4 C 13,9 C 15,0 C 62 % 1015,0 hPa 0,0 l/m 2 min 0 min 742 W/m 16,1 km/h (3 Bft) 97,87 %
09.04.2021 11:56 11,4 C 14,4 C 15,6 C 62 % 1015,0 hPa 0,0 l/m 2 min 0 min 746 W/m 19,3 km/h (3 Bft) 97,87 %
09.04.2021 11:58 11,5 C 14,4 C 16,7 C 63 % 1015,0 hPa 0,0 l/m 2 min 0 min 791 W/m 19,3 km/h (3 Bft) 95,74 %
09.04.2021 12:00 11,6 C 14,4 C 16,1 C 62 % 1015,0 hPa 0,0 l/m 2 min 0 min 759 W/m 16,1 km/h (3 Bft) 95,74 %
09.04.2021 12:02 11,8 C 15,0 C 16,1 C 63 % 1015,0 hPa 0,0 l/m 2 min 0 min 759 W/m 12,9 km/h (3 Bft) 95,83 %
09.04.2021 12:04 11,8 C 14,4 C 13,9 C 62 % 1015,0 hPa 0,0 l/m 2 min 0 min 521 W/m 12,9 km/h (3 Bft) 97,83 %
09.04.2021 12:08 11,7 C 12,8 C 11,7 C 62 % 1015,1 hPa 0,0 l/m 4 min 0 min 335 W/m 9,7 km/h (2 Bft) 97,89 %
09.04.2021 12:10 11,6 C 12,8 C 11,1 C 62 % 1015,0 hPa 0,0 l/m 2 min 0 min 361 W/m 12,9 km/h (3 Bft) 97,87 %
09.04.2021 12:12 11,6 C 12,2 C 10,6 C 62 % 1015,0 hPa 0,0 l/m 0 min 0 min 308 W/m 9,7 km/h (2 Bft) 95,74 %
09.04.2021 12:14 11,6 C 12,2 C 10,6 C 63 % 1014,9 hPa 0,0 l/m 0 min 0 min 295 W/m 12,9 km/h (3 Bft) 97,83 %
09.04.2021 12:16 11,5 C 12,2 C 10,6 C 63 % 1014,9 hPa 0,0 l/m 2 min 0 min 352 W/m 16,1 km/h (3 Bft) 95,74 %
09.04.2021 12:18 11,5 C 12,8 C 11,1 C 63 % 1014,9 hPa 0,0 l/m 2 min 0 min 352 W/m 16,1 km/h (3 Bft) 97,87 %
09.04.2021 12:20 11,6 C 13,3 C 11,7 C 63 % 1014,9 hPa 0,0 l/m 2 min 0 min 440 W/m 19,3 km/h (3 Bft) 97,87 %
09.04.2021 12:22 11,7 C 13,9 C 11,7 C 63 % 1014,9 hPa 0,0 l/m 2 min 0 min 474 W/m 12,9 km/h (3 Bft) 97,87 %
09.04.2021 12:24 11,8 C 12,8 C 11,1 C 63 % 1014,9 hPa 0,0 l/m 2 min 0 min 441 W/m 16,1 km/h (3 Bft) 95,74 %
09.04.2021 12:26 11,7 C 12,8 C 10,6 C 63 % 1014,8 hPa 0,0 l/m 2 min 0 min 356 W/m 12,9 km/h (3 Bft) 97,83 %
09.04.2021 12:28 11,8 C 13,3 C 11,1 C 63 % 1014,8 hPa 0,0 l/m 2 min 0 min 449 W/m 12,9 km/h (3 Bft) 100,00 %
09.04.2021 12:30 11,7 C 13,3 C 11,7 C 62 % 1014,7 hPa 0,0 l/m 2 min 0 min 468 W/m 16,1 km/h (3 Bft) 97,87 %
09.04.2021 12:32 11,7 C 12,8 C 11,1 C 62 % 1014,7 hPa 0,0 l/m 2 min 0 min 413 W/m 19,3 km/h (3 Bft) 95,74 %
09.04.2021 12:34 11,7 C 13,3 C 11,1 C 62 % 1014,7 hPa 0,0 l/m 0 min 0 min 332 W/m 9,7 km/h (2 Bft) 95,74 %
09.04.2021 12:36 11,8 C 13,3 C 10,6 C 63 % 1014,7 hPa 0,0 l/m 0 min 0 min 292 W/m 12,9 km/h (3 Bft) 93,62 %
09.04.2021 12:38 11,9 C 12,8 C 10,6 C 62 % 1014,6 hPa 0,0 l/m 0 min 0 min 343 W/m 12,9 km/h (3 Bft) 95,65 %
09.04.2021 12:40 11,9 C 12,8 C 10,6 C 62 % 1014,7 hPa 0,0 l/m 0 min 0 min 310 W/m 16,1 km/h (3 Bft) 95,74 %
09.04.2021 12:42 11,9 C 12,8 C 10,6 C 62 % 1014,6 hPa 0,0 l/m 0 min 0 min 325 W/m 19,3 km/h (3 Bft) 95,74 %
09.04.2021 12:44 11,9 C 12,8 C 10,6 C 62 % 1014,6 hPa 0,0 l/m 2 min 0 min 352 W/m 12,9 km/h (3 Bft) 89,36 %
09.04.2021 12:46 11,9 C 12,8 C 10,6 C 62 % 1014,6 hPa 0,0 l/m 0 min 0 min 339 W/m 12,9 km/h (3 Bft) 95,74 %
09.04.2021 12:48 12,0 C 12,8 C 10,6 C 63 % 1014,6 hPa 0,0 l/m 2 min 0 min 349 W/m 19,3 km/h (3 Bft) 95,74 %
09.04.2021 12:50 12,0 C 13,3 C 11,1 C 62 % 1014,6 hPa 0,0 l/m 2 min 0 min 404 W/m 19,3 km/h (3 Bft) 93,48 %
09.04.2021 12:52 12,1 C 13,3 C 11,1 C 62 % 1014,6 hPa 0,0 l/m 0 min 0 min 346 W/m 16,1 km/h (3 Bft) 93,75 %
09.04.2021 12:54 12,1 C 13,9 C 11,1 C 62 % 1014,6 hPa 0,0 l/m 0 min 0 min 320 W/m 12,9 km/h (3 Bft) 95,74 %
09.04.2021 12:56 12,1 C 13,9 C 11,7 C 62 % 1014,5 hPa 0,0 l/m 2 min 0 min 409 W/m 12,9 km/h (3 Bft) 95,74 %
09.04.2021 12:58 12,3 C 13,9 C 11,7 C 62 % 1014,5 hPa 0,0 l/m 2 min 0 min 435 W/m 19,3 km/h (3 Bft) 95,74 %
09.04.2021 13:00 12,4 C 13,9 C 12,3 C 62 % 1014,5 hPa 0,0 l/m 2 min 0 min 409 W/m 16,1 km/h (3 Bft) 93,62 %
09.04.2021 13:02 12,4 C 14,4 C 12,3 C 61 % 1014,5 hPa 0,0 l/m 2 min 0 min 410 W/m 12,9 km/h (3 Bft) 95,74 %
09.04.2021 13:04 12,4 C 13,9 C 11,7 C 62 % 1014,5 hPa 0,0 l/m 0 min 0 min 308 W/m 19,3 km/h (3 Bft) 95,74 %
09.04.2021 13:06 12,4 C 13,9 C 11,1 C 62 % 1014,5 hPa 0,0 l/m 0 min 0 min 318 W/m 12,9 km/h (3 Bft) 95,74 %
09.04.2021 13:08 12,4 C 13,3 C 11,1 C 61 % 1014,5 hPa 0,0 l/m 2 min 0 min 361 W/m 12,9 km/h (3 Bft) 95,83 %
09.04.2021 13:10 12,4 C 13,3 C 10,6 C 61 % 1014,5 hPa 0,0 l/m 0 min 0 min 350 W/m 16,1 km/h (3 Bft) 95,74 %
09.04.2021 13:12 12,4 C 13,9 C 11,1 C 61 % 1014,5 hPa 0,0 l/m 2 min 0 min 396 W/m 22,5 km/h (4 Bft) 93,62 %
09.04.2021 13:14 12,4 C 13,9 C 11,1 C 62 % 1014,5 hPa 0,0 l/m 0 min 0 min 342 W/m 9,7 km/h (2 Bft) 95,65 %
09.04.2021 13:16 12,5 C 13,9 C 11,1 C 62 % 1014,4 hPa 0,0 l/m 0 min 0 min 336 W/m 16,1 km/h (3 Bft) 95,74 %
09.04.2021 13:18 12,5 C 13,9 C 11,1 C 62 % 1014,5 hPa 0,0 l/m 0 min 0 min 349 W/m 12,9 km/h (3 Bft) 95,74 %
09.04.2021 13:20 12,6 C 13,9 C 11,1 C 62 % 1014,4 hPa 0,0 l/m 0 min 0 min 349 W/m 12,9 km/h (3 Bft) 97,87 %
09.04.2021 13:22 12,6 C 13,9 C 11,1 C 62 % 1014,4 hPa 0,0 l/m 0 min 0 min 352 W/m 12,9 km/h (3 Bft) 97,87 %
09.04.2021 13:24 12,7 C 15,0 C 12,3 C 62 % 1014,4 hPa 0,0 l/m 0 min 0 min 339 W/m 22,5 km/h (4 Bft) 100,00 %
09.04.2021 13:26 12,9 C 15,6 C 12,3 C 61 % 1014,4 hPa 0,0 l/m 0 min 0 min 353 W/m 16,1 km/h (3 Bft) 97,87 %
09.04.2021 13:28 12,9 C 15,0 C 12,3 C 60 % 1014,3 hPa 0,0 l/m 2 min 0 min 417 W/m 12,9 km/h (3 Bft) 100,00 %
09.04.2021 13:30 12,9 C 14,4 C 11,7 C 60 % 1014,4 hPa 0,0 l/m 2 min 0 min 363 W/m 12,9 km/h (3 Bft) 97,87 %
09.04.2021 13:32 12,9 C 14,4 C 11,7 C 60 % 1014,3 hPa 0,0 l/m 2 min 0 min 399 W/m 12,9 km/h (3 Bft) 97,92 %
09.04.2021 13:34 12,9 C 14,4 C 11,7 C 59 % 1014,4 hPa 0,0 l/m 2 min 0 min 414 W/m 22,5 km/h (4 Bft) 94,44 %
09.04.2021 13:36 12,8 C 14,4 C 12,3 C 60 % 1014,3 hPa 0,0 l/m 2 min 0 min 511 W/m 16,1 km/h (3 Bft) 97,87 %
09.04.2021 13:38 12,9 C 15,0 C 12,8 C 60 % 1014,2 hPa 0,0 l/m 2 min 0 min 550 W/m 9,7 km/h (2 Bft) 94,83 %
09.04.2021 13:40 13,0 C 15,6 C 12,8 C 61 % 1014,2 hPa 0,0 l/m 2 min 0 min 522 W/m 12,9 km/h (3 Bft) 97,14 %
09.04.2021 13:42 13,1 C 15,6 C 12,8 C 60 % 1014,2 hPa 0,0 l/m 2 min 0 min 443 W/m 12,9 km/h (3 Bft) 97,87 %
09.04.2021 13:44 13,2 C 15,6 C 12,8 C 60 % 1014,2 hPa 0,0 l/m 2 min 0 min 490 W/m 22,5 km/h (4 Bft) 97,87 %
09.04.2021 13:46 13,1 C 14,4 C 12,3 C 59 % 1014,2 hPa 0,0 l/m 2 min 0 min 501 W/m 29,0 km/h (5 Bft) 97,87 %
09.04.2021 13:48 13,1 C 15,0 C 11,7 C 59 % 1014,2 hPa 0,0 l/m 2 min 0 min 407 W/m 6,4 km/h (2 Bft) 97,92 %
09.04.2021 13:50 13,0 C 14,4 C 11,7 C 59 % 1014,3 hPa 0,0 l/m 2 min 0 min 384 W/m 19,3 km/h (3 Bft) 97,83 %
09.04.2021 13:52 13,0 C 13,9 C 11,1 C 60 % 1014,2 hPa 0,0 l/m 0 min 0 min 309 W/m 16,1 km/h (3 Bft) 97,87 %
09.04.2021 13:54 12,8 C 13,3 C 11,1 C 59 % 1014,2 hPa 0,0 l/m 0 min 0 min 319 W/m 19,3 km/h (3 Bft) 97,87 %
09.04.2021 13:56 12,8 C 13,3 C 11,1 C 60 % 1014,2 hPa 0,0 l/m 0 min 0 min 301 W/m 6,4 km/h (2 Bft) 95,74 %
09.04.2021 13:58 12,8 C 13,3 C 10,6 C 60 % 1014,2 hPa 0,0 l/m 0 min 0 min 295 W/m 12,9 km/h (3 Bft) 97,87 %
09.04.2021 14:00 12,7 C 13,3 C 10,6 C 60 % 1014,2 hPa 0,0 l/m 0 min 0 min 295 W/m 16,1 km/h (3 Bft) 97,87 %
09.04.2021 14:02 12,7 C 13,3 C 10,6 C 60 % 1014,2 hPa 0,0 l/m 0 min 0 min 286 W/m 22,5 km/h (4 Bft) 95,65 %
09.04.2021 14:04 12,7 C 13,3 C 10,6 C 60 % 1014,2 hPa 0,0 l/m 0 min 0 min 260 W/m 16,1 km/h (3 Bft) 97,87 %
09.04.2021 14:06 12,7 C 12,8 C 10,6 C 60 % 1014,1 hPa 0,0 l/m 0 min 0 min 256 W/m 19,3 km/h (3 Bft) 97,87 %
09.04.2021 14:08 12,6 C 13,3 C 10,6 C 60 % 1014,1 hPa 0,0 l/m 0 min 0 min 297 W/m 22,5 km/h (4 Bft) 97,87 %
09.04.2021 14:10 12,6 C 13,3 C 10,6 C 60 % 1014,1 hPa 0,0 l/m 0 min 0 min 280 W/m 16,1 km/h (3 Bft) 97,87 %
09.04.2021 14:12 12,6 C 12,8 C 10,6 C 60 % 1014,1 hPa 0,0 l/m 0 min 0 min 225 W/m 6,4 km/h (2 Bft) 97,87 %
09.04.2021 14:14 12,6 C 12,8 C 10,0 C 61 % 1014,1 hPa 0,0 l/m 0 min 0 min 216 W/m 12,9 km/h (3 Bft) 97,83 %
09.04.2021 14:16 12,6 C 12,8 C 10,0 C 61 % 1014,1 hPa 0,0 l/m 0 min 0 min 206 W/m 16,1 km/h (3 Bft) 100,00 %
09.04.2021 14:18 12,6 C 12,8 C 10,0 C 61 % 1014,1 hPa 0,0 l/m 0 min 0 min 213 W/m 16,1 km/h (3 Bft) 100,00 %
09.04.2021 14:20 12,6 C 12,8 C 10,0 C 60 % 1014,2 hPa 0,0 l/m 0 min 0 min 218 W/m 22,5 km/h (4 Bft) 100,00 %
09.04.2021 14:22 12,5 C 12,8 C 10,0 C 61 % 1014,2 hPa 0,0 l/m 0 min 0 min 235 W/m 19,3 km/h (3 Bft) 95,74 %
09.04.2021 14:24 12,5 C 12,8 C 10,0 C 60 % 1014,1 hPa 0,0 l/m 0 min 0 min 250 W/m 19,3 km/h (3 Bft) 97,87 %
09.04.2021 14:26 12,5 C 12,8 C 10,0 C 61 % 1014,1 hPa 0,0 l/m 0 min 0 min 255 W/m 19,3 km/h (3 Bft) 100,00 %
09.04.2021 14:28 12,5 C 12,8 C 10,0 C 61 % 1014,1 hPa 0,0 l/m 0 min 0 min 260 W/m 19,3 km/h (3 Bft) 100,00 %
09.04.2021 14:30 12,5 C 13,3 C 10,0 C 61 % 1014,1 hPa 0,0 l/m 0 min 0 min 292 W/m 6,4 km/h (2 Bft) 100,00 %
09.04.2021 14:32 12,5 C 13,9 C 10,6 C 61 % 1014,1 hPa 0,0 l/m 0 min 0 min 329 W/m 16,1 km/h (3 Bft) 100,00 %
09.04.2021 14:34 12,6 C 15,0 C 10,6 C 61 % 1014,1 hPa 0,0 l/m 2 min 0 min 395 W/m 16,1 km/h (3 Bft) 97,87 %
09.04.2021 14:36 12,9 C 16,7 C 11,1 C 61 % 1014,0 hPa 0,0 l/m 2 min 0 min 980 W/m 16,1 km/h (3 Bft) 97,87 %
09.04.2021 14:38 13,3 C 16,7 C 11,1 C 61 % 1013,9 hPa 0,0 l/m 2 min 0 min 774 W/m 12,9 km/h (3 Bft) 100,00 %
09.04.2021 14:40 13,3 C 15,6 C 11,1 C 59 % 1013,9 hPa 0,0 l/m 0 min 0 min 303 W/m 19,3 km/h (3 Bft) 100,00 %
09.04.2021 14:42 13,4 C 16,1 C 11,1 C 59 % 1014,0 hPa 0,0 l/m 0 min 0 min 327 W/m 16,1 km/h (3 Bft) 100,00 %
09.04.2021 14:44 13,5 C 16,7 C 11,1 C 58 % 1013,9 hPa 0,0 l/m 2 min 0 min 685 W/m 29,0 km/h (5 Bft) 100,00 %
09.04.2021 14:46 13,5 C 15,6 C 11,1 C 58 % 1014,0 hPa 0,0 l/m 2 min 0 min 401 W/m 25,7 km/h (4 Bft) 100,00 %
09.04.2021 14:48 13,4 C 15,0 C 11,1 C 57 % 1013,9 hPa 0,0 l/m 0 min 0 min 323 W/m 22,5 km/h (4 Bft) 97,87 %
09.04.2021 14:50 13,4 C 14,4 C 11,1 C 59 % 1013,9 hPa 0,0 l/m 0 min 0 min 287 W/m 19,3 km/h (3 Bft) 100,00 %
09.04.2021 14:52 13,4 C 14,4 C 11,1 C 59 % 1014,0 hPa 0,0 l/m 0 min 0 min 318 W/m 12,9 km/h (3 Bft) 100,00 %
09.04.2021 14:54 13,4 C 14,4 C 11,1 C 59 % 1014,0 hPa 0,0 l/m 2 min 0 min 363 W/m 12,9 km/h (3 Bft) 100,00 %
09.04.2021 14:56 13,4 C 14,4 C 11,1 C 59 % 1013,9 hPa 0,0 l/m 0 min 0 min 292 W/m 9,7 km/h (2 Bft) 100,00 %
09.04.2021 14:58 13,4 C 14,4 C 11,1 C 59 % 1013,9 hPa 0,0 l/m 0 min 0 min 260 W/m 19,3 km/h (3 Bft) 100,00 %
09.04.2021 15:00 13,4 C 13,9 C 10,6 C 59 % 1013,9 hPa 0,0 l/m 0 min 0 min 246 W/m 16,1 km/h (3 Bft) 97,87 %
09.04.2021 15:02 13,3 C 13,3 C 10,6 C 58 % 1013,8 hPa 0,0 l/m 0 min 0 min 220 W/m 12,9 km/h (3 Bft) 95,65 %
09.04.2021 15:04 13,1 C 13,3 C 10,6 C 58 % 1013,8 hPa 0,0 l/m 0 min 0 min 205 W/m 29,0 km/h (5 Bft) 100,00 %
09.04.2021 15:06 13,0 C 12,8 C 10,0 C 58 % 1013,7 hPa 0,0 l/m 0 min 0 min 219 W/m 22,5 km/h (4 Bft) 100,00 %
09.04.2021 15:08 12,9 C 12,8 C 10,0 C 59 % 1013,8 hPa 0,0 l/m 0 min 0 min 222 W/m 19,3 km/h (3 Bft) 100,00 %
09.04.2021 15:10 12,8 C 13,9 C 10,0 C 60 % 1013,7 hPa 0,0 l/m 0 min 0 min 244 W/m 16,1 km/h (3 Bft) 100,00 %
09.04.2021 15:12 12,9 C 13,9 C 10,0 C 60 % 1013,7 hPa 0,0 l/m 2 min 0 min 638 W/m 19,3 km/h (3 Bft) 97,87 %
09.04.2021 15:14 12,9 C 13,9 C 10,6 C 59 % 1013,7 hPa 0,0 l/m 0 min 0 min 234 W/m 19,3 km/h (3 Bft) 100,00 %
09.04.2021 15:16 12,9 C 13,3 C 10,6 C 59 % 1013,7 hPa 0,0 l/m 0 min 0 min 262 W/m 19,3 km/h (3 Bft) 100,00 %
09.04.2021 15:18 12,9 C 13,3 C 10,6 C 59 % 1013,7 hPa 0,0 l/m 0 min 0 min 275 W/m 12,9 km/h (3 Bft) 100,00 %
09.04.2021 15:20 12,9 C 13,3 C 10,6 C 58 % 1013,8 hPa 0,0 l/m 0 min 0 min 300 W/m 16,1 km/h (3 Bft) 100,00 %
09.04.2021 15:22 12,8 C 13,3 C 10,6 C 58 % 1013,7 hPa 0,0 l/m 0 min 0 min 320 W/m 12,9 km/h (3 Bft) 100,00 %
09.04.2021 15:24 12,9 C 13,3 C 10,6 C 59 % 1013,7 hPa 0,0 l/m 0 min 0 min 283 W/m 25,7 km/h (4 Bft) 100,00 %
09.04.2021 15:26 12,9 C 13,9 C 10,0 C 59 % 1013,7 hPa 0,0 l/m 0 min 0 min 284 W/m 22,5 km/h (4 Bft) 100,00 %
09.04.2021 15:28 12,9 C 13,9 C 10,6 C 59 % 1013,6 hPa 0,0 l/m 0 min 0 min 304 W/m 16,1 km/h (3 Bft) 100,00 %
09.04.2021 15:30 13,0 C 14,4 C 10,6 C 59 % 1013,6 hPa 0,0 l/m 2 min 0 min 511 W/m 12,9 km/h (3 Bft) 100,00 %
09.04.2021 15:32 13,1 C 14,4 C 10,6 C 59 % 1013,6 hPa 0,0 l/m 2 min 0 min 503 W/m 19,3 km/h (3 Bft) 100,00 %
09.04.2021 15:34 13,1 C 14,4 C 10,6 C 59 % 1013,5 hPa 0,0 l/m 0 min 0 min 303 W/m 19,3 km/h (3 Bft) 95,74 %
09.04.2021 15:36 13,3 C 15,0 C 10,6 C 58 % 1013,5 hPa 0,0 l/m 2 min 0 min 393 W/m 16,1 km/h (3 Bft) 95,74 %
09.04.2021 15:38 13,4 C 16,7 C 11,1 C 59 % 1013,6 hPa 0,0 l/m 2 min 0 min 610 W/m 6,4 km/h (2 Bft) 91,30 %
09.04.2021 15:40 13,5 C 16,7 C 11,1 C 58 % 1013,5 hPa 0,0 l/m 2 min 0 min 569 W/m 16,1 km/h (3 Bft) 100,00 %
09.04.2021 15:42 13,6 C 16,7 C 11,1 C 57 % 1013,5 hPa 0,0 l/m 2 min 0 min 543 W/m 16,1 km/h (3 Bft) 97,87 %
09.04.2021 15:44 13,8 C 16,7 C 11,1 C 58 % 1013,5 hPa 0,0 l/m 2 min 0 min 497 W/m 16,1 km/h (3 Bft) 97,87 %
09.04.2021 15:46 13,9 C 16,7 C 11,1 C 57 % 1013,4 hPa 0,0 l/m 2 min 0 min 462 W/m 12,9 km/h (3 Bft) 96,23 %
09.04.2021 15:48 14,0 C 16,7 C 11,1 C 57 % 1013,4 hPa 0,0 l/m 2 min 0 min 476 W/m 19,3 km/h (3 Bft) 95,65 %
09.04.2021 15:50 14,0 C 17,2 C 11,7 C 57 % 1013,5 hPa 0,0 l/m 2 min 0 min 564 W/m 16,1 km/h (3 Bft) 97,87 %
09.04.2021 15:52 14,1 C 16,7 C 11,7 C 56 % 1013,4 hPa 0,0 l/m 2 min 0 min 598 W/m 19,3 km/h (3 Bft) 97,87 %
09.04.2021 15:54 14,0 C 16,7 C 11,1 C 56 % 1013,4 hPa 0,0 l/m 2 min 0 min 387 W/m 12,9 km/h (3 Bft) 97,87 %
09.04.2021 15:56 14,0 C 16,1 C 11,1 C 55 % 1013,3 hPa 0,0 l/m 2 min 0 min 482 W/m 19,3 km/h (3 Bft) 95,74 %
09.04.2021 15:58 13,9 C 16,7 C 11,1 C 55 % 1013,3 hPa 0,0 l/m 2 min 0 min 390 W/m 16,1 km/h (3 Bft) 95,74 %
09.04.2021 16:00 14,0 C 18,3 C 11,1 C 56 % 1013,3 hPa 0,0 l/m 2 min 0 min 534 W/m 6,4 km/h (2 Bft) 97,83 %
09.04.2021 16:02 14,2 C 17,8 C 11,7 C 56 % 1013,3 hPa 0,0 l/m 2 min 0 min 746 W/m 16,1 km/h (3 Bft) 93,75 %
09.04.2021 16:04 14,2 C 16,7 C 11,7 C 56 % 1013,4 hPa 0,0 l/m 2 min 0 min 682 W/m 16,1 km/h (3 Bft) 93,62 %
09.04.2021 16:06 14,1 C 15,0 C 11,1 C 55 % 1013,3 hPa 0,0 l/m 0 min 0 min 279 W/m 16,1 km/h (3 Bft) 91,49 %
09.04.2021 16:08 14,0 C 14,4 C 11,1 C 56 % 1013,3 hPa 0,0 l/m 0 min 0 min 275 W/m 16,1 km/h (3 Bft) 95,74 %
09.04.2021 16:10 13,9 C 14,4 C 11,1 C 56 % 1013,3 hPa 0,0 l/m 0 min 0 min 261 W/m 12,9 km/h (3 Bft) 93,48 %
09.04.2021 16:12 13,8 C 14,4 C 11,1 C 56 % 1013,3 hPa 0,0 l/m 0 min 0 min 251 W/m 12,9 km/h (3 Bft) 92,31 %
09.04.2021 16:14 13,8 C 14,4 C 11,1 C 56 % 1013,5 hPa 0,0 l/m 0 min 0 min 258 W/m 12,9 km/h (3 Bft) 91,30 %
09.04.2021 16:16 13,7 C 13,9 C 10,6 C 57 % 1013,4 hPa 0,0 l/m 0 min 0 min 244 W/m 22,5 km/h (4 Bft) 91,49 %
09.04.2021 16:18 13,6 C 13,9 C 10,6 C 57 % 1013,3 hPa 0,0 l/m 0 min 0 min 242 W/m 12,9 km/h (3 Bft) 91,67 %
09.04.2021 16:20 13,6 C 14,4 C 10,6 C 57 % 1013,3 hPa 0,0 l/m 0 min 0 min 239 W/m 16,1 km/h (3 Bft) 93,62 %
09.04.2021 16:22 13,6 C 14,4 C 11,1 C 58 % 1013,3 hPa 0,0 l/m 0 min 0 min 253 W/m 12,9 km/h (3 Bft) 95,74 %
09.04.2021 16:24 13,6 C 14,4 C 10,6 C 57 % 1013,3 hPa 0,0 l/m 0 min 0 min 257 W/m 9,7 km/h (2 Bft) 95,65 %
09.04.2021 16:26 13,6 C 15,6 C 11,1 C 58 % 1013,3 hPa 0,0 l/m 0 min 0 min 257 W/m 12,9 km/h (3 Bft) 93,62 %
09.04.2021 16:28 13,7 C 15,0 C 11,1 C 58 % 1013,3 hPa 0,0 l/m 0 min 0 min 255 W/m 12,9 km/h (3 Bft) 97,87 %
09.04.2021 16:30 13,7 C 15,0 C 11,1 C 57 % 1013,2 hPa 0,0 l/m 0 min 0 min 260 W/m 19,3 km/h (3 Bft) 95,74 %
09.04.2021 16:32 13,7 C 14,4 C 11,1 C 57 % 1013,2 hPa 0,0 l/m 0 min 0 min 209 W/m 12,9 km/h (3 Bft) 91,67 %
09.04.2021 16:34 13,6 C 13,9 C 10,6 C 57 % 1013,3 hPa 0,0 l/m 0 min 0 min 211 W/m 16,1 km/h (3 Bft) 93,62 %
09.04.2021 16:36 13,6 C 13,9 C 10,6 C 57 % 1013,3 hPa 0,0 l/m 0 min 0 min 229 W/m 16,1 km/h (3 Bft) 95,65 %
09.04.2021 16:38 13,6 C 13,9 C 10,6 C 57 % 1013,3 hPa 0,0 l/m 0 min 0 min 241 W/m 12,9 km/h (3 Bft) 95,83 %
09.04.2021 16:40 13,5 C 13,9 C 10,6 C 57 % 1013,3 hPa 0,0 l/m 0 min 0 min 252 W/m 19,3 km/h (3 Bft) 95,83 %
09.04.2021 16:42 13,5 C 13,9 C 10,6 C 57 % 1013,2 hPa 0,0 l/m 2 min 0 min 276 W/m 9,7 km/h (2 Bft) 95,74 %
09.04.2021 16:44 13,5 C 14,4 C 10,6 C 58 % 1013,2 hPa 0,0 l/m 2 min 0 min 292 W/m 16,1 km/h (3 Bft) 95,74 %
09.04.2021 16:46 13,5 C 14,4 C 10,6 C 58 % 1013,2 hPa 0,0 l/m 2 min 0 min 292 W/m 12,9 km/h (3 Bft) 97,87 %
09.04.2021 16:48 13,5 C 14,4 C 10,6 C 58 % 1013,2 hPa 0,0 l/m 2 min 0 min 265 W/m 9,7 km/h (2 Bft) 95,65 %
09.04.2021 16:50 13,5 C 13,9 C 10,6 C 57 % 1013,2 hPa 0,0 l/m 0 min 0 min 214 W/m 12,9 km/h (3 Bft) 97,92 %
09.04.2021 16:52 13,5 C 13,9 C 10,6 C 58 % 1013,2 hPa 0,0 l/m 0 min 0 min 220 W/m 12,9 km/h (3 Bft) 97,87 %
09.04.2021 16:54 13,5 C 15,0 C 10,6 C 58 % 1013,2 hPa 0,0 l/m 0 min 0 min 223 W/m 9,7 km/h (2 Bft) 97,87 %
09.04.2021 16:56 13,5 C 15,6 C 10,6 C 58 % 1013,2 hPa 0,0 l/m 2 min 0 min 255 W/m 16,1 km/h (3 Bft) 97,87 %
09.04.2021 16:58 13,6 C 17,2 C 10,6 C 57 % 1013,2 hPa 0,0 l/m 2 min 0 min 438 W/m 12,9 km/h (3 Bft) 97,83 %
09.04.2021 17:00 13,6 C 17,8 C 11,1 C 57 % 1013,2 hPa 0,0 l/m 2 min 0 min 437 W/m 12,9 km/h (3 Bft) 97,87 %
09.04.2021 17:02 13,8 C 17,8 C 11,1 C 57 % 1013,1 hPa 0,0 l/m 2 min 0 min 384 W/m 6,4 km/h (2 Bft) 97,87 %
09.04.2021 17:04 13,9 C 18,3 C 11,1 C 58 % 1013,1 hPa 0,0 l/m 2 min 0 min 378 W/m 6,4 km/h (2 Bft) 93,62 %
09.04.2021 17:06 14,0 C 17,8 C 11,1 C 57 % 1013,1 hPa 0,0 l/m 2 min 0 min 375 W/m 12,9 km/h (3 Bft) 97,87 %
09.04.2021 17:08 14,0 C 16,7 C 11,1 C 57 % 1013,1 hPa 0,0 l/m 2 min 0 min 241 W/m 12,9 km/h (3 Bft) 97,87 %
09.04.2021 17:10 14,0 C 16,7 C 11,1 C 57 % 1013,0 hPa 0,0 l/m 0 min 0 min 167 W/m 19,3 km/h (3 Bft) 100,00 %
09.04.2021 17:12 14,0 C 16,7 C 10,6 C 57 % 1013,0 hPa 0,0 l/m 2 min 0 min 283 W/m 22,5 km/h (4 Bft) 100,00 %
09.04.2021 17:14 13,9 C 17,8 C 11,1 C 58 % 1013,0 hPa 0,0 l/m 2 min 0 min 480 W/m 9,7 km/h (2 Bft) 100,00 %
09.04.2021 17:16 14,0 C 17,8 C 11,1 C 59 % 1013,0 hPa 0,0 l/m 2 min 0 min 376 W/m 19,3 km/h (3 Bft) 100,00 %
09.04.2021 17:18 14,0 C 17,2 C 11,1 C 57 % 1013,0 hPa 0,0 l/m 2 min 0 min 388 W/m 12,9 km/h (3 Bft) 100,00 %
09.04.2021 17:20 14,0 C 16,7 C 11,1 C 58 % 1013,0 hPa 0,0 l/m 2 min 0 min 271 W/m 12,9 km/h (3 Bft) 100,00 %
09.04.2021 17:22 14,1 C 16,7 C 11,1 C 58 % 1013,0 hPa 0,0 l/m 2 min 0 min 281 W/m 12,9 km/h (3 Bft) 100,00 %
09.04.2021 17:24 14,0 C 16,7 C 11,1 C 57 % 1013,0 hPa 0,0 l/m 2 min 0 min 348 W/m 12,9 km/h (3 Bft) 100,00 %
09.04.2021 17:26 14,0 C 17,2 C 11,1 C 56 % 1013,0 hPa 0,0 l/m 2 min 0 min 393 W/m 12,9 km/h (3 Bft) 100,00 %
09.04.2021 17:28 14,1 C 17,8 C 11,1 C 56 % 1013,0 hPa 0,0 l/m 2 min 0 min 428 W/m 6,4 km/h (2 Bft) 97,87 %
09.04.2021 17:30 14,2 C 17,8 C 11,1 C 56 % 1013,0 hPa 0,0 l/m 2 min 0 min 419 W/m 9,7 km/h (2 Bft) 100,00 %
09.04.2021 17:32 14,2 C 17,8 C 11,1 C 56 % 1013,0 hPa 0,0 l/m 2 min 0 min 365 W/m 12,9 km/h (3 Bft) 100,00 %
09.04.2021 17:34 14,2 C 16,7 C 11,1 C 56 % 1012,9 hPa 0,0 l/m 2 min 0 min 285 W/m 16,1 km/h (3 Bft) 100,00 %
09.04.2021 17:36 14,2 C 16,7 C 11,1 C 56 % 1013,0 hPa 0,0 l/m 2 min 0 min 303 W/m 16,1 km/h (3 Bft) 97,83 %
09.04.2021 17:38 14,2 C 17,2 C 11,1 C 56 % 1013,0 hPa 0,0 l/m 2 min 0 min 408 W/m 9,7 km/h (2 Bft) 100,00 %
09.04.2021 17:40 14,2 C 17,8 C 11,7 C 56 % 1013,0 hPa 0,0 l/m 2 min 0 min 395 W/m 25,7 km/h (4 Bft) 100,00 %
09.04.2021 17:42 14,2 C 17,8 C 11,7 C 57 % 1012,9 hPa 0,0 l/m 2 min 0 min 418 W/m 16,1 km/h (3 Bft) 98,11 %
09.04.2021 17:44 14,2 C 18,3 C 11,7 C 57 % 1013,0 hPa 0,0 l/m 2 min 0 min 360 W/m 16,1 km/h (3 Bft) 100,00 %
09.04.2021 17:46 14,2 C 18,9 C 11,7 C 58 % 1012,9 hPa 0,0 l/m 2 min 0 min 405 W/m 12,9 km/h (3 Bft) 100,00 %
09.04.2021 17:48 14,3 C 17,8 C 11,7 C 58 % 1012,9 hPa 0,0 l/m 2 min 0 min 398 W/m 12,9 km/h (3 Bft) 100,00 %
09.04.2021 17:50 14,3 C 17,2 C 11,1 C 57 % 1012,9 hPa 0,0 l/m 2 min 0 min 251 W/m 16,1 km/h (3 Bft) 100,00 %
09.04.2021 17:52 14,2 C 16,1 C 11,1 C 57 % 1012,9 hPa 0,0 l/m 2 min 0 min 322 W/m 12,9 km/h (3 Bft) 100,00 %
09.04.2021 17:54 14,2 C 15,0 C 11,1 C 57 % 1012,9 hPa 0,0 l/m 0 min 0 min 164 W/m 19,3 km/h (3 Bft) 98,31 %
09.04.2021 17:56 14,1 C 14,4 C 10,6 C 57 % 1012,9 hPa 0,0 l/m 0 min 0 min 140 W/m 12,9 km/h (3 Bft) 100,00 %
09.04.2021 17:58 14,0 C 13,9 C 10,6 C 57 % 1012,9 hPa 0,0 l/m 0 min 0 min 154 W/m 16,1 km/h (3 Bft) 100,00 %
09.04.2021 18:00 13,8 C 13,9 C 10,6 C 57 % 1012,9 hPa 0,0 l/m 0 min 0 min 153 W/m 9,7 km/h (2 Bft) 100,00 %
09.04.2021 18:02 13,8 C 13,3 C 10,6 C 58 % 1012,9 hPa 0,0 l/m 0 min 0 min 145 W/m 12,9 km/h (3 Bft) 100,00 %
09.04.2021 18:04 13,6 C 13,3 C 10,6 C 58 % 1012,9 hPa 0,0 l/m 0 min 0 min 133 W/m 12,9 km/h (3 Bft) 100,00 %
09.04.2021 18:08 13,5 C 12,8 C 10,0 C 58 % 1012,9 hPa 0,0 l/m 0 min 0 min 120 W/m 9,7 km/h (2 Bft) 100,00 %
09.04.2021 18:10 13,5 C 12,8 C 10,0 C 58 % 1012,9 hPa 0,0 l/m 0 min 0 min 104 W/m 9,7 km/h (2 Bft) 100,00 %
09.04.2021 18:12 13,4 C 12,8 C 10,0 C 59 % 1012,8 hPa 0,0 l/m 0 min 0 min 100 W/m 6,4 km/h (2 Bft) 100,00 %
09.04.2021 18:14 13,4 C 12,8 C 10,0 C 59 % 1012,8 hPa 0,0 l/m 0 min 0 min 107 W/m 9,7 km/h (2 Bft) 100,00 %
09.04.2021 18:16 13,4 C 12,8 C 10,0 C 60 % 1012,8 hPa 0,0 l/m 0 min 0 min 105 W/m 9,7 km/h (2 Bft) 95,74 %
09.04.2021 18:18 13,3 C 12,8 C 10,0 C 60 % 1012,8 hPa 0,0 l/m 0 min 0 min 129 W/m 9,7 km/h (2 Bft) 97,87 %
09.04.2021 18:20 13,3 C 12,8 C 10,0 C 59 % 1012,7 hPa 0,0 l/m 0 min 0 min 129 W/m 9,7 km/h (2 Bft) 97,87 %
09.04.2021 18:22 13,2 C 12,8 C 10,0 C 60 % 1012,7 hPa 0,0 l/m 0 min 0 min 131 W/m 9,7 km/h (2 Bft) 95,74 %
09.04.2021 18:24 13,2 C 12,8 C 10,0 C 60 % 1012,7 hPa 0,0 l/m 0 min 0 min 116 W/m 9,7 km/h (2 Bft) 95,65 %
09.04.2021 18:26 13,2 C 12,8 C 10,0 C 60 % 1012,7 hPa 0,0 l/m 0 min 0 min 114 W/m 9,7 km/h (2 Bft) 97,87 %
09.04.2021 18:28 13,1 C 12,8 C 10,0 C 60 % 1012,8 hPa 0,0 l/m 0 min 0 min 114 W/m 9,7 km/h (2 Bft) 97,87 %
09.04.2021 18:30 13,1 C 12,8 C 10,0 C 60 % 1012,8 hPa 0,0 l/m 0 min 0 min 105 W/m 9,7 km/h (2 Bft) 97,87 %
09.04.2021 18:32 13,1 C 12,8 C 10,0 C 60 % 1012,8 hPa 0,0 l/m 0 min 0 min 102 W/m 6,4 km/h (2 Bft) 93,88 %
09.04.2021 18:34 13,0 C 12,8 C 10,0 C 60 % 1012,8 hPa 0,0 l/m 0 min 0 min 95 W/m 3,2 km/h (1 Bft) 97,83 %
09.04.2021 18:36 13,0 C 12,8 C 10,0 C 61 % 1012,8 hPa 0,0 l/m 0 min 0 min 93 W/m 3,2 km/h (1 Bft) 93,62 %
09.04.2021 18:38 13,0 C 12,8 C 9,5 C 61 % 1012,8 hPa 0,0 l/m 0 min 0 min 91 W/m 9,7 km/h (2 Bft) 95,74 %
09.04.2021 18:40 13,0 C 12,8 C 9,5 C 61 % 1012,8 hPa 0,0 l/m 0 min 0 min 96 W/m 6,4 km/h (2 Bft) 95,74 %
09.04.2021 18:42 13,0 C 12,8 C 9,5 C 61 % 1012,7 hPa 0,0 l/m 0 min 0 min 95 W/m 6,4 km/h (2 Bft) 95,74 %
09.04.2021 18:44 13,0 C 12,8 C 9,5 C 61 % 1012,7 hPa 0,0 l/m 0 min 0 min 95 W/m 3,2 km/h (1 Bft) 97,87 %
09.04.2021 18:46 13,0 C 12,8 C 9,5 C 62 % 1012,7 hPa 0,0 l/m 0 min 0 min 94 W/m 6,4 km/h (2 Bft) 95,65 %
09.04.2021 18:48 13,0 C 12,8 C 9,5 C 61 % 1012,7 hPa 0,0 l/m 0 min 0 min 81 W/m 6,4 km/h (2 Bft) 95,74 %
09.04.2021 18:50 13,0 C 12,8 C 9,5 C 61 % 1012,7 hPa 0,0 l/m 0 min 0 min 75 W/m 6,4 km/h (2 Bft) 93,62 %
09.04.2021 18:52 13,0 C 12,8 C 9,5 C 61 % 1012,6 hPa 0,0 l/m 0 min 0 min 74 W/m 6,4 km/h (2 Bft) 93,62 %
09.04.2021 18:54 12,9 C 12,8 C 9,5 C 61 % 1012,6 hPa 0,0 l/m 0 min 0 min 70 W/m 6,4 km/h (2 Bft) 95,74 %
09.04.2021 18:56 12,9 C 12,2 C 9,5 C 61 % 1012,6 hPa 0,0 l/m 0 min 0 min 70 W/m 9,7 km/h (2 Bft) 95,74 %
09.04.2021 18:58 12,9 C 12,2 C 9,5 C 62 % 1012,7 hPa 0,0 l/m 0 min 0 min 73 W/m 3,2 km/h (1 Bft) 95,65 %
09.04.2021 19:00 12,9 C 12,2 C 9,5 C 62 % 1012,6 hPa 0,0 l/m 0 min 0 min 77 W/m 6,4 km/h (2 Bft) 95,74 %
09.04.2021 19:02 12,9 C 12,2 C 9,5 C 62 % 1012,6 hPa 0,0 l/m 0 min 0 min 76 W/m 3,2 km/h (1 Bft) 93,75 %
09.04.2021 19:04 12,8 C 12,2 C 9,5 C 62 % 1012,6 hPa 0,0 l/m 0 min 0 min 75 W/m 6,4 km/h (2 Bft) 95,74 %
09.04.2021 19:06 12,8 C 12,2 C 9,5 C 63 % 1012,6 hPa 0,0 l/m 0 min 0 min 77 W/m 6,4 km/h (2 Bft) 93,62 %
09.04.2021 19:08 12,8 C 12,2 C 9,5 C 62 % 1012,6 hPa 0,0 l/m 0 min 0 min 73 W/m 6,4 km/h (2 Bft) 97,87 %
09.04.2021 19:10 12,7 C 12,2 C 9,5 C 62 % 1012,6 hPa 0,0 l/m 0 min 0 min 62 W/m 9,7 km/h (2 Bft) 93,48 %
09.04.2021 19:12 12,7 C 12,2 C 8,9 C 62 % 1012,6 hPa 0,0 l/m 0 min 0 min 49 W/m 3,2 km/h (1 Bft) 97,87 %
09.04.2021 19:14 12,6 C 12,2 C 8,9 C 62 % 1012,6 hPa 0,0 l/m 0 min 0 min 42 W/m 3,2 km/h (1 Bft) 97,87 %
09.04.2021 19:16 12,6 C 11,7 C 8,9 C 62 % 1012,6 hPa 0,0 l/m 0 min 0 min 37 W/m 3,2 km/h (1 Bft) 97,87 %
09.04.2021 19:18 12,6 C 11,7 C 8,9 C 63 % 1012,6 hPa 0,0 l/m 0 min 0 min 32 W/m 3,2 km/h (1 Bft) 95,74 %
09.04.2021 19:20 12,6 C 11,7 C 8,9 C 63 % 1012,5 hPa 0,0 l/m 0 min 0 min 32 W/m 0,0 km/h (0 Bft) 95,74 %
09.04.2021 19:22 12,6 C 11,7 C 8,9 C 63 % 1012,6 hPa 0,0 l/m 0 min 0 min 32 W/m 3,2 km/h (1 Bft) 95,65 %
09.04.2021 19:24 12,5 C 11,7 C 8,9 C 63 % 1012,6 hPa 0,0 l/m 0 min 0 min 33 W/m 3,2 km/h (1 Bft) 100,00 %
09.04.2021 19:26 12,5 C 11,7 C 8,9 C 63 % 1012,5 hPa 0,0 l/m 0 min 0 min 33 W/m 3,2 km/h (1 Bft) 97,87 %
09.04.2021 19:28 12,5 C 11,7 C 8,9 C 63 % 1012,6 hPa 0,0 l/m 0 min 0 min 33 W/m 3,2 km/h (1 Bft) 97,87 %
09.04.2021 19:30 12,5 C 11,7 C 8,9 C 63 % 1012,6 hPa 0,0 l/m 0 min 0 min 36 W/m 6,4 km/h (2 Bft) 93,62 %
09.04.2021 19:32 12,4 C 11,7 C 8,9 C 63 % 1012,6 hPa 0,0 l/m 0 min 0 min 33 W/m 3,2 km/h (1 Bft) 97,87 %
09.04.2021 19:34 12,4 C 11,7 C 8,4 C 63 % 1012,5 hPa 0,0 l/m 0 min 0 min 29 W/m 3,2 km/h (1 Bft) 97,83 %
09.04.2021 19:36 12,4 C 11,1 C 8,4 C 63 % 1012,6 hPa 0,0 l/m 0 min 0 min 25 W/m 0,0 km/h (0 Bft) 97,87 %
09.04.2021 19:38 12,3 C 11,1 C 8,4 C 63 % 1012,6 hPa 0,0 l/m 0 min 0 min 22 W/m 0,0 km/h (0 Bft) 97,87 %
09.04.2021 19:40 12,3 C 11,1 C 8,4 C 63 % 1012,5 hPa 0,0 l/m 0 min 0 min 21 W/m 3,2 km/h (1 Bft) 97,87 %
09.04.2021 19:42 12,3 C 11,1 C 8,4 C 63 % 1012,6 hPa 0,0 l/m 0 min 0 min 21 W/m 3,2 km/h (1 Bft) 95,74 %
09.04.2021 19:44 12,2 C 11,1 C 8,4 C 64 % 1012,6 hPa 0,0 l/m 0 min 0 min 23 W/m 0,0 km/h (0 Bft) 97,87 %
09.04.2021 19:46 12,1 C 11,1 C 8,4 C 63 % 1012,6 hPa 0,0 l/m 0 min 0 min 23 W/m 3,2 km/h (1 Bft) 97,83 %
09.04.2021 19:48 12,1 C 11,1 C 8,4 C 64 % 1012,6 hPa 0,0 l/m 0 min 0 min 24 W/m 0,0 km/h (0 Bft) 97,87 %
09.04.2021 19:50 12,1 C 11,1 C 8,4 C 64 % 1012,6 hPa 0,0 l/m 0 min 0 min 23 W/m 0,0 km/h (0 Bft) 95,74 %
09.04.2021 19:52 12,1 C 11,1 C 8,4 C 64 % 1012,5 hPa 0,0 l/m 0 min 0 min 23 W/m 3,2 km/h (1 Bft) 97,73 %
09.04.2021 19:54 12,1 C 11,1 C 7,8 C 64 % 1012,6 hPa 0,0 l/m 0 min 0 min 22 W/m 0,0 km/h (0 Bft) 97,87 %
09.04.2021 19:56 12,0 C 10,6 C 7,8 C 64 % 1012,5 hPa 0,0 l/m 0 min 0 min 19 W/m 0,0 km/h (0 Bft) 95,74 %
09.04.2021 19:58 12,0 C 10,6 C 7,8 C 64 % 1012,5 hPa 0,0 l/m 0 min 0 min 18 W/m 0,0 km/h (0 Bft) 97,83 %
09.04.2021 20:00 12,0 C 10,6 C 7,8 C 64 % 1012,5 hPa 0,0 l/m 0 min 0 min 16 W/m 0,0 km/h (0 Bft) 97,87 %
09.04.2021 20:02 12,0 C 10,6 C 7,8 C 64 % 1012,4 hPa 0,0 l/m 0 min 0 min 13 W/m 0,0 km/h (0 Bft) 97,87 %
09.04.2021 20:04 12,0 C 10,6 C 7,3 C 65 % 1012,5 hPa 0,0 l/m 0 min 0 min 12 W/m 0,0 km/h (0 Bft) 95,74 %
09.04.2021 20:06 12,0 C 10,0 C 7,3 C 66 % 1012,4 hPa 0,0 l/m 0 min 0 min 11 W/m 0,0 km/h (0 Bft) 95,74 %
09.04.2021 20:08 12,0 C 10,0 C 7,3 C 66 % 1012,4 hPa 0,0 l/m 0 min 0 min 10 W/m 0,0 km/h (0 Bft) 95,83 %
09.04.2021 20:10 11,9 C 10,0 C 6,7 C 67 % 1012,3 hPa 0,0 l/m 0 min 0 min 9 W/m 0,0 km/h (0 Bft) 97,87 %
09.04.2021 20:12 11,9 C 10,0 C 6,7 C 67 % 1012,4 hPa 0,0 l/m 0 min 0 min 7 W/m 0,0 km/h (0 Bft) 100,00 %
09.04.2021 20:14 11,9 C 9,4 C 6,7 C 68 % 1012,5 hPa 0,0 l/m 0 min 0 min 5 W/m 0,0 km/h (0 Bft) 100,00 %
09.04.2021 20:16 11,8 C 9,4 C 6,7 C 68 % 1012,4 hPa 0,0 l/m 0 min 0 min 5 W/m 0,0 km/h (0 Bft) 100,00 %
09.04.2021 20:18 11,8 C 9,4 C 6,7 C 68 % 1012,5 hPa 0,0 l/m 0 min 0 min 1 W/m 0,0 km/h (0 Bft) 100,00 %
09.04.2021 20:20 11,7 C 9,4 C 6,1 C 68 % 1012,5 hPa 0,0 l/m 0 min 0 min 0 W/m 0,0 km/h (0 Bft) 100,00 %
09.04.2021 20:22 11,6 C 8,9 C 6,1 C 68 % 1012,5 hPa 0,0 l/m 0 min 0 min 0 W/m 0,0 km/h (0 Bft) 100,00 %
09.04.2021 20:24 11,6 C 8,9 C 6,1 C 69 % 1012,5 hPa 0,0 l/m 0 min 0 min 0 W/m 0,0 km/h (0 Bft) 100,00 %
09.04.2021 20:26 11,5 C 8,9 C 6,1 C 69 % 1012,5 hPa 0,0 l/m 0 min 0 min 0 W/m 0,0 km/h (0 Bft) 100,00 %
09.04.2021 20:28 11,4 C 8,9 C 6,1 C 69 % 1012,5 hPa 0,0 l/m 0 min 0 min 0 W/m 0,0 km/h (0 Bft) 97,87 %
09.04.2021 20:30 11,4 C 8,9 C 6,1 C 69 % 1012,5 hPa 0,0 l/m 0 min 0 min 0 W/m 0,0 km/h (0 Bft) 100,00 %
09.04.2021 20:32 11,3 C 8,9 C 6,1 C 69 % 1012,5 hPa 0,0 l/m 0 min 0 min 0 W/m 0,0 km/h (0 Bft) 100,00 %
09.04.2021 20:34 11,2 C 8,9 C 6,1 C 70 % 1012,5 hPa 0,0 l/m 0 min 0 min 0 W/m 0,0 km/h (0 Bft) 100,00 %
09.04.2021 20:36 11,1 C 8,3 C 6,1 C 70 % 1012,5 hPa 0,0 l/m 0 min 0 min 0 W/m 0,0 km/h (0 Bft) 100,00 %
09.04.2021 20:38 11,0 C 8,3 C 5,6 C 70 % 1012,5 hPa 0,0 l/m 0 min 0 min 0 W/m 0,0 km/h (0 Bft) 100,00 %
09.04.2021 20:40 11,0 C 8,3 C 5,6 C 69 % 1012,5 hPa 0,0 l/m 0 min 0 min 0 W/m 0,0 km/h (0 Bft) 100,00 %
09.04.2021 20:42 11,0 C 8,3 C 5,6 C 69 % 1012,5 hPa 0,0 l/m 0 min 0 min 0 W/m 0,0 km/h (0 Bft) 47,50 %
09.04.2021 20:44 10,8 C 8,3 C 5,6 C 70 % 1012,5 hPa 0,0 l/m 0 min 0 min 0 W/m 0,0 km/h (0 Bft) 100,00 %
09.04.2021 20:46 10,8 C 8,3 C 5,6 C 70 % 1012,5 hPa 0,0 l/m 0 min 0 min 0 W/m 0,0 km/h (0 Bft) 100,00 %
09.04.2021 20:48 10,8 C 8,3 C 5,6 C 70 % 1012,5 hPa 0,0 l/m 0 min 0 min 0 W/m 0,0 km/h (0 Bft) 100,00 %
09.04.2021 20:50 10,6 C 8,3 C 5,6 C 70 % 1012,5 hPa 0,0 l/m 0 min 0 min 0 W/m 0,0 km/h (0 Bft) 100,00 %
09.04.2021 20:52 10,6 C 8,3 C 5,6 C 70 % 1012,5 hPa 0,0 l/m 0 min 0 min 0 W/m 0,0 km/h (0 Bft) 100,00 %
09.04.2021 20:54 10,5 C 8,3 C 5,6 C 71 % 1012,6 hPa 0,0 l/m 0 min 0 min 0 W/m 0,0 km/h (0 Bft) 100,00 %
09.04.2021 20:56 10,5 C 8,3 C 5,6 C 71 % 1012,6 hPa 0,0 l/m 0 min 0 min 0 W/m 0,0 km/h (0 Bft) 97,87 %
09.04.2021 20:58 10,5 C 8,3 C 5,6 C 71 % 1012,6 hPa 0,0 l/m 0 min 0 min 0 W/m 0,0 km/h (0 Bft) 100,00 %
09.04.2021 21:00 10,4 C 8,3 C 5,6 C 71 % 1012,6 hPa 0,0 l/m 0 min 0 min 0 W/m 0,0 km/h (0 Bft) 97,87 %
09.04.2021 21:02 10,4 C 8,3 C 5,6 C 71 % 1012,6 hPa 0,0 l/m 0 min 0 min 0 W/m 0,0 km/h (0 Bft) 100,00 %
09.04.2021 21:04 10,3 C 8,3 C 5,6 C 72 % 1012,6 hPa 0,0 l/m 0 min 0 min 0 W/m 0,0 km/h (0 Bft) 100,00 %
09.04.2021 21:06 10,3 C 8,3 C 5,6 C 72 % 1012,6 hPa 0,0 l/m 0 min 0 min 0 W/m 0,0 km/h (0 Bft) 100,00 %
09.04.2021 21:08 10,2 C 8,3 C 5,6 C 73 % 1012,6 hPa 0,0 l/m 0 min 0 min 0 W/m 0,0 km/h (0 Bft) 100,00 %
09.04.2021 21:10 10,2 C 8,3 C 5,6 C 73 % 1012,6 hPa 0,0 l/m 0 min 0 min 0 W/m 0,0 km/h (0 Bft) 100,00 %
09.04.2021 21:12 10,1 C 8,3 C 5,6 C 72 % 1012,6 hPa 0,0 l/m 0 min 0 min 0 W/m 0,0 km/h (0 Bft) 100,00 %
09.04.2021 21:14 10,1 C 8,3 C 5,6 C 72 % 1012,6 hPa 0,0 l/m 0 min 0 min 0 W/m 0,0 km/h (0 Bft) 100,00 %
09.04.2021 21:16 10,0 C 8,3 C 5,6 C 72 % 1012,6 hPa 0,0 l/m 0 min 0 min 0 W/m 0,0 km/h (0 Bft) 100,00 %
09.04.2021 21:18 10,0 C 8,3 C 5,6 C 72 % 1012,6 hPa 0,0 l/m 0 min 0 min 0 W/m 0,0 km/h (0 Bft) 100,00 %
09.04.2021 21:20 10,0 C 8,3 C 5,6 C 73 % 1012,7 hPa 0,0 l/m 0 min 0 min 0 W/m 0,0 km/h (0 Bft) 100,00 %
09.04.2021 21:22 9,9 C 8,3 C 5,6 C 73 % 1012,7 hPa 0,0 l/m 0 min 0 min 0 W/m 0,0 km/h (0 Bft) 100,00 %
09.04.2021 21:24 9,9 C 8,3 C 5,6 C 73 % 1012,7 hPa 0,0 l/m 0 min 0 min 0 W/m 0,0 km/h (0 Bft) 100,00 %
09.04.2021 21:26 9,9 C 8,3 C 5,6 C 73 % 1012,6 hPa 0,0 l/m 0 min 0 min 0 W/m 0,0 km/h (0 Bft) 100,00 %
09.04.2021 21:28 9,9 C 8,3 C 5,6 C 73 % 1012,6 hPa 0,0 l/m 0 min 0 min 0 W/m 0,0 km/h (0 Bft) 95,74 %
09.04.2021 21:30 9,8 C 8,3 C 5,6 C 73 % 1012,6 hPa 0,0 l/m 0 min 0 min 0 W/m 0,0 km/h (0 Bft) 97,87 %
09.04.2021 21:32 9,8 C 8,3 C 5,6 C 73 % 1012,6 hPa 0,0 l/m 0 min 0 min 0 W/m 0,0 km/h (0 Bft) 97,87 %
09.04.2021 21:34 9,8 C 8,3 C 5,6 C 73 % 1012,5 hPa 0,0 l/m 0 min 0 min 0 W/m 0,0 km/h (0 Bft) 100,00 %
09.04.2021 21:36 9,8 C 8,3 C 5,6 C 73 % 1012,5 hPa 0,0 l/m 0 min 0 min 0 W/m 0,0 km/h (0 Bft) 97,87 %
09.04.2021 21:38 9,7 C 8,3 C 5,6 C 73 % 1012,6 hPa 0,0 l/m 0 min 0 min 0 W/m 0,0 km/h (0 Bft) 97,92 %
09.04.2021 21:40 9,6 C 8,3 C 5,6 C 73 % 1012,5 hPa 0,0 l/m 0 min 0 min 0 W/m 0,0 km/h (0 Bft) 97,87 %
09.04.2021 21:42 9,6 C 8,3 C 5,6 C 73 % 1012,6 hPa 0,0 l/m 0 min 0 min 0 W/m 0,0 km/h (0 Bft) 93,62 %
09.04.2021 21:44 9,6 C 8,3 C 5,6 C 74 % 1012,6 hPa 0,0 l/m 0 min 0 min 0 W/m 0,0 km/h (0 Bft) 95,65 %
09.04.2021 21:46 9,6 C 8,3 C 5,6 C 75 % 1012,6 hPa 0,0 l/m 0 min 0 min 0 W/m 0,0 km/h (0 Bft) 95,74 %
09.04.2021 21:48 9,6 C 7,8 C 5,6 C 75 % 1012,6 hPa 0,0 l/m 0 min 0 min 0 W/m 0,0 km/h (0 Bft) 95,74 %
09.04.2021 21:50 9,5 C 7,8 C 5,6 C 75 % 1012,5 hPa 0,0 l/m 0 min 0 min 0 W/m 0,0 km/h (0 Bft) 95,74 %
09.04.2021 21:52 9,5 C 7,8 C 5,6 C 75 % 1012,5 hPa 0,0 l/m 0 min 0 min 0 W/m 0,0 km/h (0 Bft) 95,74 %
09.04.2021 21:54 9,5 C 7,8 C 5,6 C 75 % 1012,6 hPa 0,0 l/m 0 min 0 min 0 W/m 0,0 km/h (0 Bft) 97,87 %
09.04.2021 21:56 9,5 C 7,8 C 5,6 C 75 % 1012,6 hPa 0,0 l/m 0 min 0 min 0 W/m 0,0 km/h (0 Bft) 93,48 %
09.04.2021 21:58 9,4 C 8,3 C 5,6 C 75 % 1012,6 hPa 0,0 l/m 0 min 0 min 0 W/m 0,0 km/h (0 Bft) 95,74 %
09.04.2021 22:00 9,4 C 8,3 C 5,6 C 75 % 1012,6 hPa 0,0 l/m 0 min 0 min 0 W/m 0,0 km/h (0 Bft) 93,62 %
09.04.2021 22:02 9,4 C 8,3 C 5,0 C 74 % 1012,5 hPa 0,0 l/m 0 min 0 min 0 W/m 0,0 km/h (0 Bft) 93,75 %
09.04.2021 22:04 9,3 C 8,3 C 5,0 C 74 % 1012,6 hPa 0,0 l/m 0 min 0 min 0 W/m 0,0 km/h (0 Bft) 95,74 %
09.04.2021 22:06 9,3 C 8,3 C 5,0 C 74 % 1012,6 hPa 0,0 l/m 0 min 0 min 0 W/m 0,0 km/h (0 Bft) 95,65 %
09.04.2021 22:08 9,3 C 8,3 C 5,0 C 74 % 1012,6 hPa 0,0 l/m 0 min 0 min 0 W/m 0,0 km/h (0 Bft) 95,74 %
09.04.2021 22:10 9,3 C 7,8 C 5,0 C 74 % 1012,6 hPa 0,0 l/m 0 min 0 min 0 W/m 0,0 km/h (0 Bft) 100,00 %
09.04.2021 22:12 9,2 C 7,8 C 5,0 C 74 % 1012,6 hPa 0,0 l/m 0 min 0 min 0 W/m 0,0 km/h (0 Bft) 95,74 %
09.04.2021 22:14 9,2 C 7,8 C 5,0 C 75 % 1012,6 hPa 0,0 l/m 0 min 0 min 0 W/m 0,0 km/h (0 Bft) 48,78 %
09.04.2021 22:16 9,2 C 7,8 C 5,0 C 75 % 1012,5 hPa 0,0 l/m 0 min 0 min 0 W/m 0,0 km/h (0 Bft) 95,74 %
09.04.2021 22:18 9,1 C 7,8 C 5,0 C 76 % 1012,6 hPa 0,0 l/m 0 min 0 min 0 W/m 0,0 km/h (0 Bft) 97,87 %
09.04.2021 22:20 9,1 C 7,8 C 5,0 C 76 % 1012,6 hPa 0,0 l/m 0 min 0 min 0 W/m 0,0 km/h (0 Bft) 97,83 %
09.04.2021 22:22 9,1 C 7,8 C 5,0 C 76 % 1012,6 hPa 0,0 l/m 0 min 0 min 0 W/m 0,0 km/h (0 Bft) 97,87 %
09.04.2021 22:24 9,1 C 7,8 C 5,0 C 76 % 1012,7 hPa 0,0 l/m 0 min 0 min 0 W/m 0,0 km/h (0 Bft) 97,44 %
09.04.2021 22:26 9,0 C 7,8 C 5,0 C 76 % 1012,7 hPa 0,0 l/m 0 min 0 min 0 W/m 0,0 km/h (0 Bft) 97,87 %
09.04.2021 22:28 9,0 C 7,8 C 5,0 C 76 % 1012,7 hPa 0,0 l/m 0 min 0 min 0 W/m 0,0 km/h (0 Bft) 95,74 %
09.04.2021 22:30 9,0 C 7,8 C 5,0 C 76 % 1012,8 hPa 0,0 l/m 0 min 0 min 0 W/m 0,0 km/h (0 Bft) 97,87 %
09.04.2021 22:32 9,0 C 7,8 C 5,0 C 76 % 1012,8 hPa 0,0 l/m 0 min 0 min 0 W/m 0,0 km/h (0 Bft) 95,65 %
09.04.2021 22:34 9,0 C 7,8 C 5,0 C 76 % 1012,8 hPa 0,0 l/m 0 min 0 min 0 W/m 0,0 km/h (0 Bft) 95,74 %
09.04.2021 22:36 8,9 C 7,8 C 5,0 C 76 % 1012,8 hPa 0,0 l/m 0 min 0 min 0 W/m 0,0 km/h (0 Bft) 93,62 %
09.04.2021 22:38 8,9 C 7,8 C 5,0 C 76 % 1012,8 hPa 0,0 l/m 0 min 0 min 0 W/m 0,0 km/h (0 Bft) 95,74 %
09.04.2021 22:40 8,9 C 7,8 C 5,0 C 76 % 1012,8 hPa 0,0 l/m 0 min 0 min 0 W/m 0,0 km/h (0 Bft) 95,74 %
09.04.2021 22:42 8,9 C 7,8 C 5,0 C 77 % 1012,8 hPa 0,0 l/m 0 min 0 min 0 W/m 0,0 km/h (0 Bft) 97,87 %
09.04.2021 22:44 8,9 C 7,8 C 5,0 C 77 % 1012,7 hPa 0,0 l/m 0 min 0 min 0 W/m 0,0 km/h (0 Bft) 97,87 %
09.04.2021 22:46 8,9 C 7,8 C 5,0 C 77 % 1012,8 hPa 0,0 l/m 0 min 0 min 0 W/m 0,0 km/h (0 Bft) 97,83 %
09.04.2021 22:48 8,9 C 7,8 C 5,0 C 77 % 1012,8 hPa 0,0 l/m 0 min 0 min 0 W/m 0,0 km/h (0 Bft) 95,74 %
09.04.2021 22:50 8,9 C 7,8 C 5,0 C 77 % 1012,8 hPa 0,0 l/m 0 min 0 min 0 W/m 0,0 km/h (0 Bft) 97,87 %
09.04.2021 22:52 8,8 C 7,8 C 5,0 C 77 % 1012,8 hPa 0,0 l/m 0 min 0 min 0 W/m 0,0 km/h (0 Bft) 97,87 %
09.04.2021 22:54 8,8 C 7,8 C 5,6 C 77 % 1012,8 hPa 0,0 l/m 0 min 0 min 0 W/m 0,0 km/h (0 Bft) 97,87 %
09.04.2021 22:56 8,8 C 7,8 C 5,6 C 77 % 1012,8 hPa 0,0 l/m 0 min 0 min 0 W/m 0,0 km/h (0 Bft) 97,83 %
09.04.2021 22:58 8,8 C 8,3 C 5,6 C 76 % 1012,8 hPa 0,0 l/m 0 min 0 min 0 W/m 3,2 km/h (1 Bft) 97,87 %
09.04.2021 23:00 8,8 C 8,3 C 5,6 C 76 % 1012,8 hPa 0,0 l/m 0 min 0 min 0 W/m 0,0 km/h (0 Bft) 97,87 %
09.04.2021 23:02 8,8 C 8,3 C 5,6 C 75 % 1012,9 hPa 0,0 l/m 0 min 0 min 0 W/m 0,0 km/h (0 Bft) 93,62 %
09.04.2021 23:04 8,8 C 8,3 C 5,6 C 75 % 1012,9 hPa 0,0 l/m 0 min 0 min 0 W/m 0,0 km/h (0 Bft) 95,74 %
09.04.2021 23:06 8,8 C 8,3 C 5,6 C 75 % 1012,9 hPa 0,0 l/m 0 min 0 min 0 W/m 0,0 km/h (0 Bft) 97,87 %
09.04.2021 23:08 8,8 C 8,3 C 5,6 C 75 % 1012,9 hPa 0,0 l/m 0 min 2 min 0 W/m 6,4 km/h (2 Bft) 97,83 %
09.04.2021 23:10 8,8 C 8,3 C 5,6 C 75 % 1012,9 hPa 0,0 l/m 0 min 0 min 0 W/m 3,2 km/h (1 Bft) 97,87 %
09.04.2021 23:12 8,8 C 8,3 C 5,6 C 75 % 1012,9 hPa 0,0 l/m 0 min 0 min 0 W/m 0,0 km/h (0 Bft) 97,87 %
09.04.2021 23:14 8,8 C 8,3 C 5,6 C 75 % 1012,9 hPa 0,0 l/m 0 min 2 min 0 W/m 3,2 km/h (1 Bft) 97,87 %
09.04.2021 23:16 8,8 C 8,3 C 5,6 C 76 % 1012,8 hPa 0,0 l/m 0 min 2 min 0 W/m 6,4 km/h (2 Bft) 97,87 %
09.04.2021 23:18 8,8 C 8,3 C 5,6 C 76 % 1012,8 hPa 0,0 l/m 0 min 2 min 0 W/m 0,0 km/h (0 Bft) 97,87 %
09.04.2021 23:20 8,8 C 8,3 C 5,6 C 77 % 1012,8 hPa 0,0 l/m 0 min 0 min 0 W/m 0,0 km/h (0 Bft) 96,36 %
09.04.2021 23:22 8,8 C 8,3 C 5,0 C 77 % 1012,8 hPa 0,0 l/m 0 min 0 min 0 W/m 9,7 km/h (2 Bft) 97,87 %
09.04.2021 23:24 8,8 C 8,3 C 5,0 C 77 % 1012,7 hPa 0,0 l/m 0 min 0 min 0 W/m 3,2 km/h (1 Bft) 97,92 %
09.04.2021 23:26 8,8 C 8,3 C 5,0 C 78 % 1012,7 hPa 0,0 l/m 0 min 2 min 0 W/m 6,4 km/h (2 Bft) 93,62 %
09.04.2021 23:28 8,9 C 8,3 C 5,6 C 78 % 1012,7 hPa 0,0 l/m 0 min 2 min 0 W/m 9,7 km/h (2 Bft) 97,87 %
09.04.2021 23:30 8,9 C 8,3 C 5,6 C 78 % 1012,7 hPa 0,0 l/m 0 min 2 min 0 W/m 3,2 km/h (1 Bft) 95,65 %
09.04.2021 23:32 8,9 C 8,3 C 5,6 C 78 % 1012,7 hPa 0,0 l/m 0 min 2 min 0 W/m 3,2 km/h (1 Bft) 97,22 %
09.04.2021 23:34 8,9 C 8,3 C 5,6 C 78 % 1012,7 hPa 0,0 l/m 0 min 2 min 0 W/m 3,2 km/h (1 Bft) 97,87 %
09.04.2021 23:36 8,9 C 8,3 C 5,6 C 78 % 1012,7 hPa 0,0 l/m 0 min 2 min 0 W/m 3,2 km/h (1 Bft) 95,74 %
09.04.2021 23:38 8,9 C 8,3 C 5,6 C 77 % 1012,6 hPa 0,0 l/m 0 min 2 min 0 W/m 3,2 km/h (1 Bft) 94,92 %
09.04.2021 23:40 8,9 C 8,3 C 5,6 C 77 % 1012,6 hPa 0,0 l/m 0 min 2 min 0 W/m 0,0 km/h (0 Bft) 94,29 %
09.04.2021 23:42 9,0 C 8,3 C 5,6 C 77 % 1012,6 hPa 0,0 l/m 0 min 2 min 0 W/m 3,2 km/h (1 Bft) 95,74 %
09.04.2021 23:44 8,9 C 8,3 C 5,6 C 78 % 1012,6 hPa 0,0 l/m 0 min 2 min 0 W/m 3,2 km/h (1 Bft) 95,65 %
09.04.2021 23:46 9,0 C 8,3 C 5,0 C 78 % 1012,5 hPa 0,0 l/m 0 min 2 min 0 W/m 3,2 km/h (1 Bft) 93,62 %
09.04.2021 23:48 9,0 C 7,8 C 5,0 C 78 % 1012,5 hPa 0,0 l/m 0 min 2 min 0 W/m 3,2 km/h (1 Bft) 95,74 %
09.04.2021 23:50 9,0 C 7,8 C 5,0 C 78 % 1012,5 hPa 0,0 l/m 0 min 2 min 0 W/m 3,2 km/h (1 Bft) 93,62 %
09.04.2021 23:52 9,0 C 7,8 C 5,0 C 78 % 1012,4 hPa 0,0 l/m 0 min 0 min 0 W/m 3,2 km/h (1 Bft) 93,62 %
09.04.2021 23:54 9,0 C 7,8 C 5,0 C 79 % 1012,5 hPa 0,0 l/m 0 min 2 min 0 W/m 6,4 km/h (2 Bft) 95,74 %
09.04.2021 23:56 8,9 C 7,8 C 5,0 C 79 % 1012,5 hPa 0,0 l/m 0 min 2 min 0 W/m 6,4 km/h (2 Bft) 95,65 %
09.04.2021 23:58 8,9 C 7,8 C 5,0 C 80 % 1012,5 hPa 0,0 l/m 0 min 2 min 0 W/m 3,2 km/h (1 Bft) 97,87 %
_ Min-Zeit 06:50 04:58 06:02 15:56 20:10 - - - - 19:20 07:34
Minimum _ 2,2 C 1,7 C -0,5 C 55 % 1012,3 hPa - - - - 0,0 km/h (0 Bft) 40,00 %
_ Max-Zeit 17:48 17:46 11:58 07:26 00:00 00:00 12:08 23:08 14:36 10:00 01:38
Maximum _ 14,3 C 18,9 C 16,7 C 85 % 1019,5 hPa 0,0 l/m 4 min 2 min 980 W/m 29,0 km/h
S-SO (5 Bft)
100,00 %
Durchschnitt _ 8,2 C 8,5 C 5,8 C 71 % 1014,9 hPa #0,0 l/m #6:02 h #40 min. 269 W/m 8,8 km/h (2 Bft) 97,03 %
© 2021 W. Hausmann